<?xml version="1.0" encoding="UTF-8" standalone="no" ?>
<gpx xmlns="http://www.topografix.com/GPX/1/1" xmlns:xsi="http://www.w3.org/2001/XMLSchema-instance" xsi:schemaLocation="http://www.topografix.com/GPX/1/1 http://www.topografix.com/GPX/1/1/gpx.xsd" version="1.1" creator="VisuGPX - https://www.visugpx.com">
  <metadata>
    <name>Fontainebleau Boucle 19 km</name>
    <desc><![CDATA[Sortie effectuée en juillet 2017 avec le Rando Club Yerrois
Tracée et animée par Georges]]></desc>
  </metadata>
  <trk>
    <name><![CDATA[Fontainebleau Boucle 19 km_1]]></name>
    <trkseg>
      <trkpt lat="48.37729" lon="2.67961">
        <ele>95.5</ele>
        <time>2017-07-05T07:57:50Z</time>
      </trkpt>
      <trkpt lat="48.37729" lon="2.67961">
        <ele>130.742</ele>
        <time>2017-07-05T07:57:56Z</time>
      </trkpt>
      <trkpt lat="48.37742" lon="2.67968">
        <ele>142.654</ele>
        <time>2017-07-05T08:04:35Z</time>
      </trkpt>
      <trkpt lat="48.37742" lon="2.67968">
        <ele>142.654</ele>
        <time>2017-07-05T08:04:40Z</time>
      </trkpt>
      <trkpt lat="48.37742" lon="2.67968">
        <ele>96.6</ele>
        <time>2017-07-05T08:04:40Z</time>
      </trkpt>
      <trkpt lat="48.37742" lon="2.67968">
        <ele>96.6</ele>
        <time>2017-07-05T08:07:59Z</time>
      </trkpt>
      <trkpt lat="48.3777" lon="2.67955">
        <ele>141.656</ele>
        <time>2017-07-05T08:07:59Z</time>
      </trkpt>
      <trkpt lat="48.37795" lon="2.6794">
        <ele>141.997</ele>
        <time>2017-07-05T08:09:12Z</time>
      </trkpt>
      <trkpt lat="48.37806" lon="2.67926">
        <ele>142.416</ele>
        <time>2017-07-05T08:09:33Z</time>
      </trkpt>
      <trkpt lat="48.37823" lon="2.67889">
        <ele>144.344</ele>
        <time>2017-07-05T08:11:03Z</time>
      </trkpt>
      <trkpt lat="48.37848" lon="2.67877">
        <ele>145.966</ele>
        <time>2017-07-05T08:11:45Z</time>
      </trkpt>
      <trkpt lat="48.37852" lon="2.67855">
        <ele>146.661</ele>
        <time>2017-07-05T08:11:58Z</time>
      </trkpt>
      <trkpt lat="48.37846" lon="2.67831">
        <ele>147.707</ele>
        <time>2017-07-05T08:12:18Z</time>
      </trkpt>
      <trkpt lat="48.37853" lon="2.67816">
        <ele>148.388</ele>
        <time>2017-07-05T08:12:32Z</time>
      </trkpt>
      <trkpt lat="48.37861" lon="2.6777">
        <ele>150.421</ele>
        <time>2017-07-05T08:13:27Z</time>
      </trkpt>
      <trkpt lat="48.37864" lon="2.6775">
        <ele>150.666</ele>
        <time>2017-07-05T08:13:41Z</time>
      </trkpt>
      <trkpt lat="48.37852" lon="2.67736">
        <ele>151.088</ele>
        <time>2017-07-05T08:13:58Z</time>
      </trkpt>
      <trkpt lat="48.37841" lon="2.6772">
        <ele>151.539</ele>
        <time>2017-07-05T08:14:13Z</time>
      </trkpt>
      <trkpt lat="48.37835" lon="2.67702">
        <ele>151.918</ele>
        <time>2017-07-05T08:14:24Z</time>
      </trkpt>
      <trkpt lat="48.37826" lon="2.67682">
        <ele>152.607</ele>
        <time>2017-07-05T08:14:41Z</time>
      </trkpt>
      <trkpt lat="48.37822" lon="2.67654">
        <ele>153.049</ele>
        <time>2017-07-05T08:14:54Z</time>
      </trkpt>
      <trkpt lat="48.3782" lon="2.67639">
        <ele>153.329</ele>
        <time>2017-07-05T08:15:03Z</time>
      </trkpt>
      <trkpt lat="48.37825" lon="2.67603">
        <ele>153.929</ele>
        <time>2017-07-05T08:15:20Z</time>
      </trkpt>
      <trkpt lat="48.37823" lon="2.67584">
        <ele>154.388</ele>
        <time>2017-07-05T08:15:31Z</time>
      </trkpt>
      <trkpt lat="48.37815" lon="2.67564">
        <ele>155.158</ele>
        <time>2017-07-05T08:15:48Z</time>
      </trkpt>
      <trkpt lat="48.378" lon="2.67544">
        <ele>155.846</ele>
        <time>2017-07-05T08:16:04Z</time>
      </trkpt>
      <trkpt lat="48.37827" lon="2.67562">
        <ele>157.887</ele>
        <time>2017-07-05T08:16:56Z</time>
      </trkpt>
      <trkpt lat="48.37835" lon="2.67574">
        <ele>158.384</ele>
        <time>2017-07-05T08:17:07Z</time>
      </trkpt>
      <trkpt lat="48.37851" lon="2.6759">
        <ele>159.018</ele>
        <time>2017-07-05T08:17:23Z</time>
      </trkpt>
      <trkpt lat="48.37867" lon="2.67599">
        <ele>159.706</ele>
        <time>2017-07-05T08:17:40Z</time>
      </trkpt>
      <trkpt lat="48.37871" lon="2.67601">
        <ele>159.786</ele>
        <time>2017-07-05T08:17:42Z</time>
      </trkpt>
      <trkpt lat="48.37871" lon="2.67601">
        <ele>120.8</ele>
        <time>2017-07-05T08:17:50Z</time>
      </trkpt>
      <trkpt lat="48.37871" lon="2.67601">
        <ele>120.8</ele>
        <time>2017-07-05T08:19:09Z</time>
      </trkpt>
      <trkpt lat="48.37898" lon="2.67589">
        <ele>160.954</ele>
        <time>2017-07-05T08:19:09Z</time>
      </trkpt>
      <trkpt lat="48.37915" lon="2.67616">
        <ele>161.382</ele>
        <time>2017-07-05T08:20:41Z</time>
      </trkpt>
      <trkpt lat="48.37927" lon="2.6758">
        <ele>161.342</ele>
        <time>2017-07-05T08:21:23Z</time>
      </trkpt>
      <trkpt lat="48.37951" lon="2.67552">
        <ele>160.83</ele>
        <time>2017-07-05T08:22:40Z</time>
      </trkpt>
      <trkpt lat="48.37959" lon="2.67511">
        <ele>160.39</ele>
        <time>2017-07-05T08:23:40Z</time>
      </trkpt>
      <trkpt lat="48.37958" lon="2.67488">
        <ele>160.355</ele>
        <time>2017-07-05T08:23:52Z</time>
      </trkpt>
      <trkpt lat="48.37956" lon="2.67479">
        <ele>160.334</ele>
        <time>2017-07-05T08:23:57Z</time>
      </trkpt>
      <trkpt lat="48.37956" lon="2.67479">
        <ele>119.3</ele>
        <time>2017-07-05T08:24:05Z</time>
      </trkpt>
      <trkpt lat="48.37956" lon="2.67479">
        <ele>119.3</ele>
        <time>2017-07-05T08:24:45Z</time>
      </trkpt>
      <trkpt lat="48.3796" lon="2.67434">
        <ele>159.907</ele>
        <time>2017-07-05T08:24:45Z</time>
      </trkpt>
      <trkpt lat="48.37973" lon="2.67416">
        <ele>159.85</ele>
        <time>2017-07-05T08:25:03Z</time>
      </trkpt>
      <trkpt lat="48.37955" lon="2.67385">
        <ele>160.274</ele>
        <time>2017-07-05T08:25:58Z</time>
      </trkpt>
      <trkpt lat="48.37943" lon="2.67377">
        <ele>160.335</ele>
        <time>2017-07-05T08:26:07Z</time>
      </trkpt>
      <trkpt lat="48.37921" lon="2.67372">
        <ele>160.398</ele>
        <time>2017-07-05T08:26:24Z</time>
      </trkpt>
      <trkpt lat="48.37904" lon="2.67366">
        <ele>160.41</ele>
        <time>2017-07-05T08:26:41Z</time>
      </trkpt>
      <trkpt lat="48.37918" lon="2.67326">
        <ele>160.604</ele>
        <time>2017-07-05T08:27:30Z</time>
      </trkpt>
      <trkpt lat="48.37941" lon="2.67305">
        <ele>160.834</ele>
        <time>2017-07-05T08:28:15Z</time>
      </trkpt>
      <trkpt lat="48.3795" lon="2.67281">
        <ele>160.841</ele>
        <time>2017-07-05T08:28:30Z</time>
      </trkpt>
      <trkpt lat="48.37952" lon="2.67239">
        <ele>160.862</ele>
        <time>2017-07-05T08:29:06Z</time>
      </trkpt>
      <trkpt lat="48.37952" lon="2.67239">
        <ele>160.862</ele>
        <time>2017-07-05T08:29:13Z</time>
      </trkpt>
      <trkpt lat="48.37952" lon="2.67239">
        <ele>113.8</ele>
        <time>2017-07-05T08:29:13Z</time>
      </trkpt>
      <trkpt lat="48.37952" lon="2.67239">
        <ele>113.8</ele>
        <time>2017-07-05T08:29:22Z</time>
      </trkpt>
      <trkpt lat="48.37967" lon="2.67229">
        <ele>160.922</ele>
        <time>2017-07-05T08:29:22Z</time>
      </trkpt>
      <trkpt lat="48.37971" lon="2.67227">
        <ele>160.987</ele>
        <time>2017-07-05T08:29:28Z</time>
      </trkpt>
      <trkpt lat="48.37971" lon="2.67227">
        <ele>117.3</ele>
        <time>2017-07-05T08:29:35Z</time>
      </trkpt>
      <trkpt lat="48.37971" lon="2.67227">
        <ele>117.3</ele>
        <time>2017-07-05T08:29:40Z</time>
      </trkpt>
      <trkpt lat="48.37978" lon="2.67229">
        <ele>161.151</ele>
        <time>2017-07-05T08:29:40Z</time>
      </trkpt>
      <trkpt lat="48.3799" lon="2.67217">
        <ele>161.363</ele>
        <time>2017-07-05T08:29:55Z</time>
      </trkpt>
      <trkpt lat="48.37992" lon="2.67206">
        <ele>161.473</ele>
        <time>2017-07-05T08:30:04Z</time>
      </trkpt>
      <trkpt lat="48.37992" lon="2.67206">
        <ele>113.3</ele>
        <time>2017-07-05T08:30:11Z</time>
      </trkpt>
      <trkpt lat="48.37992" lon="2.67206">
        <ele>113.3</ele>
        <time>2017-07-05T08:30:53Z</time>
      </trkpt>
      <trkpt lat="48.3799" lon="2.67162">
        <ele>161.38</ele>
        <time>2017-07-05T08:31:51Z</time>
      </trkpt>
      <trkpt lat="48.37992" lon="2.67155">
        <ele>161.37</ele>
        <time>2017-07-05T08:31:57Z</time>
      </trkpt>
      <trkpt lat="48.37992" lon="2.67155">
        <ele>106.8</ele>
        <time>2017-07-05T08:32:05Z</time>
      </trkpt>
      <trkpt lat="48.37992" lon="2.67155">
        <ele>106.8</ele>
        <time>2017-07-05T08:32:36Z</time>
      </trkpt>
      <trkpt lat="48.37975" lon="2.67137">
        <ele>161.082</ele>
        <time>2017-07-05T08:32:36Z</time>
      </trkpt>
      <trkpt lat="48.37975" lon="2.67137">
        <ele>161.082</ele>
        <time>2017-07-05T08:32:41Z</time>
      </trkpt>
      <trkpt lat="48.37975" lon="2.67137">
        <ele>103.9</ele>
        <time>2017-07-05T08:32:41Z</time>
      </trkpt>
      <trkpt lat="48.37975" lon="2.67137">
        <ele>103.9</ele>
        <time>2017-07-05T08:32:55Z</time>
      </trkpt>
      <trkpt lat="48.37977" lon="2.67115">
        <ele>160.86</ele>
        <time>2017-07-05T08:32:55Z</time>
      </trkpt>
      <trkpt lat="48.37979" lon="2.67108">
        <ele>160.826</ele>
        <time>2017-07-05T08:32:58Z</time>
      </trkpt>
      <trkpt lat="48.37979" lon="2.67108">
        <ele>102.9</ele>
        <time>2017-07-05T08:33:05Z</time>
      </trkpt>
      <trkpt lat="48.37979" lon="2.67108">
        <ele>102.9</ele>
        <time>2017-07-05T08:33:09Z</time>
      </trkpt>
      <trkpt lat="48.37978" lon="2.67095">
        <ele>160.697</ele>
        <time>2017-07-05T08:33:09Z</time>
      </trkpt>
      <trkpt lat="48.37978" lon="2.67095">
        <ele>160.697</ele>
        <time>2017-07-05T08:33:17Z</time>
      </trkpt>
      <trkpt lat="48.37978" lon="2.67095">
        <ele>105.5</ele>
        <time>2017-07-05T08:33:17Z</time>
      </trkpt>
      <trkpt lat="48.37978" lon="2.67095">
        <ele>105.5</ele>
        <time>2017-07-05T08:33:55Z</time>
      </trkpt>
      <trkpt lat="48.37991" lon="2.67081">
        <ele>160.336</ele>
        <time>2017-07-05T08:33:55Z</time>
      </trkpt>
      <trkpt lat="48.37995" lon="2.67074">
        <ele>160.311</ele>
        <time>2017-07-05T08:33:59Z</time>
      </trkpt>
      <trkpt lat="48.37995" lon="2.67074">
        <ele>106.3</ele>
        <time>2017-07-05T08:34:04Z</time>
      </trkpt>
      <trkpt lat="48.37995" lon="2.67074">
        <ele>106.3</ele>
        <time>2017-07-05T08:34:34Z</time>
      </trkpt>
      <trkpt lat="48.37966" lon="2.67052">
        <ele>159.835</ele>
        <time>2017-07-05T08:35:09Z</time>
      </trkpt>
      <trkpt lat="48.37961" lon="2.67051">
        <ele>159.815</ele>
        <time>2017-07-05T08:35:14Z</time>
      </trkpt>
      <trkpt lat="48.37961" lon="2.67051">
        <ele>115.5</ele>
        <time>2017-07-05T08:35:21Z</time>
      </trkpt>
      <trkpt lat="48.37961" lon="2.67051">
        <ele>115.5</ele>
        <time>2017-07-05T08:36:18Z</time>
      </trkpt>
      <trkpt lat="48.37963" lon="2.67014">
        <ele>159.777</ele>
        <time>2017-07-05T08:36:18Z</time>
      </trkpt>
      <trkpt lat="48.37936" lon="2.67011">
        <ele>159.779</ele>
        <time>2017-07-05T08:37:00Z</time>
      </trkpt>
      <trkpt lat="48.37924" lon="2.67007">
        <ele>159.834</ele>
        <time>2017-07-05T08:37:18Z</time>
      </trkpt>
      <trkpt lat="48.37895" lon="2.67008">
        <ele>159.983</ele>
        <time>2017-07-05T08:38:19Z</time>
      </trkpt>
      <trkpt lat="48.37893" lon="2.67002">
        <ele>160.01</ele>
        <time>2017-07-05T08:38:26Z</time>
      </trkpt>
      <trkpt lat="48.37893" lon="2.67002">
        <ele>120.6</ele>
        <time>2017-07-05T08:38:33Z</time>
      </trkpt>
      <trkpt lat="48.37893" lon="2.67002">
        <ele>120.6</ele>
        <time>2017-07-05T08:38:39Z</time>
      </trkpt>
      <trkpt lat="48.3789" lon="2.66993">
        <ele>160.099</ele>
        <time>2017-07-05T08:38:39Z</time>
      </trkpt>
      <trkpt lat="48.3789" lon="2.66993">
        <ele>160.099</ele>
        <time>2017-07-05T08:40:40Z</time>
      </trkpt>
      <trkpt lat="48.37876" lon="2.66956">
        <ele>160.549</ele>
        <time>2017-07-05T08:40:49Z</time>
      </trkpt>
      <trkpt lat="48.37878" lon="2.66933">
        <ele>160.471</ele>
        <time>2017-07-05T08:41:08Z</time>
      </trkpt>
      <trkpt lat="48.37878" lon="2.66933">
        <ele>160.471</ele>
        <time>2017-07-05T08:41:16Z</time>
      </trkpt>
      <trkpt lat="48.37878" lon="2.66933">
        <ele>109.9</ele>
        <time>2017-07-05T08:41:16Z</time>
      </trkpt>
      <trkpt lat="48.37878" lon="2.66933">
        <ele>109.9</ele>
        <time>2017-07-05T08:42:05Z</time>
      </trkpt>
      <trkpt lat="48.37875" lon="2.66891">
        <ele>160.215</ele>
        <time>2017-07-05T08:42:05Z</time>
      </trkpt>
      <trkpt lat="48.37877" lon="2.66854">
        <ele>159.584</ele>
        <time>2017-07-05T08:43:29Z</time>
      </trkpt>
      <trkpt lat="48.37877" lon="2.66854">
        <ele>159.584</ele>
        <time>2017-07-05T08:43:36Z</time>
      </trkpt>
      <trkpt lat="48.37877" lon="2.66854">
        <ele>96.6</ele>
        <time>2017-07-05T08:43:36Z</time>
      </trkpt>
      <trkpt lat="48.37877" lon="2.66854">
        <ele>96.6</ele>
        <time>2017-07-05T08:44:11Z</time>
      </trkpt>
      <trkpt lat="48.37875" lon="2.66813">
        <ele>158.786</ele>
        <time>2017-07-05T08:44:11Z</time>
      </trkpt>
      <trkpt lat="48.37874" lon="2.66794">
        <ele>158.643</ele>
        <time>2017-07-05T08:44:18Z</time>
      </trkpt>
      <trkpt lat="48.37874" lon="2.66784">
        <ele>158.541</ele>
        <time>2017-07-05T08:44:24Z</time>
      </trkpt>
      <trkpt lat="48.37874" lon="2.66784">
        <ele>92.2</ele>
        <time>2017-07-05T08:44:32Z</time>
      </trkpt>
      <trkpt lat="48.37874" lon="2.66784">
        <ele>92.2</ele>
        <time>2017-07-05T08:44:37Z</time>
      </trkpt>
      <trkpt lat="48.37873" lon="2.66769">
        <ele>158.302</ele>
        <time>2017-07-05T08:44:37Z</time>
      </trkpt>
      <trkpt lat="48.37864" lon="2.66745">
        <ele>157.982</ele>
        <time>2017-07-05T08:44:52Z</time>
      </trkpt>
      <trkpt lat="48.37859" lon="2.66734">
        <ele>157.806</ele>
        <time>2017-07-05T08:45:01Z</time>
      </trkpt>
      <trkpt lat="48.37854" lon="2.66716">
        <ele>157.578</ele>
        <time>2017-07-05T08:45:13Z</time>
      </trkpt>
      <trkpt lat="48.3785" lon="2.66682">
        <ele>157.245</ele>
        <time>2017-07-05T08:45:31Z</time>
      </trkpt>
      <trkpt lat="48.37843" lon="2.66664">
        <ele>156.984</ele>
        <time>2017-07-05T08:45:43Z</time>
      </trkpt>
      <trkpt lat="48.37838" lon="2.66645">
        <ele>156.579</ele>
        <time>2017-07-05T08:46:03Z</time>
      </trkpt>
      <trkpt lat="48.37838" lon="2.66645">
        <ele>156.579</ele>
        <time>2017-07-05T08:46:10Z</time>
      </trkpt>
      <trkpt lat="48.37838" lon="2.66645">
        <ele>94.4</ele>
        <time>2017-07-05T08:46:10Z</time>
      </trkpt>
      <trkpt lat="48.37838" lon="2.66645">
        <ele>94.4</ele>
        <time>2017-07-05T08:50:15Z</time>
      </trkpt>
      <trkpt lat="48.3784" lon="2.66621">
        <ele>152.805</ele>
        <time>2017-07-05T08:50:15Z</time>
      </trkpt>
      <trkpt lat="48.37841" lon="2.66592">
        <ele>152.438</ele>
        <time>2017-07-05T08:50:33Z</time>
      </trkpt>
      <trkpt lat="48.37845" lon="2.66573">
        <ele>152.206</ele>
        <time>2017-07-05T08:50:47Z</time>
      </trkpt>
      <trkpt lat="48.37848" lon="2.66551">
        <ele>152.01</ele>
        <time>2017-07-05T08:51:00Z</time>
      </trkpt>
      <trkpt lat="48.37849" lon="2.66529">
        <ele>151.791</ele>
        <time>2017-07-05T08:51:16Z</time>
      </trkpt>
      <trkpt lat="48.37851" lon="2.6651">
        <ele>151.647</ele>
        <time>2017-07-05T08:51:29Z</time>
      </trkpt>
      <trkpt lat="48.37854" lon="2.66481">
        <ele>151.475</ele>
        <time>2017-07-05T08:51:46Z</time>
      </trkpt>
      <trkpt lat="48.37866" lon="2.66446">
        <ele>151.298</ele>
        <time>2017-07-05T08:52:06Z</time>
      </trkpt>
      <trkpt lat="48.37868" lon="2.6643">
        <ele>151.217</ele>
        <time>2017-07-05T08:52:16Z</time>
      </trkpt>
      <trkpt lat="48.37871" lon="2.66398">
        <ele>151.063</ele>
        <time>2017-07-05T08:52:36Z</time>
      </trkpt>
      <trkpt lat="48.37875" lon="2.66375">
        <ele>150.934</ele>
        <time>2017-07-05T08:52:53Z</time>
      </trkpt>
      <trkpt lat="48.37883" lon="2.66343">
        <ele>150.814</ele>
        <time>2017-07-05T08:53:10Z</time>
      </trkpt>
      <trkpt lat="48.37886" lon="2.66316">
        <ele>150.731</ele>
        <time>2017-07-05T08:53:26Z</time>
      </trkpt>
      <trkpt lat="48.3789" lon="2.66298">
        <ele>150.698</ele>
        <time>2017-07-05T08:53:40Z</time>
      </trkpt>
      <trkpt lat="48.37889" lon="2.66277">
        <ele>150.651</ele>
        <time>2017-07-05T08:53:54Z</time>
      </trkpt>
      <trkpt lat="48.37889" lon="2.66242">
        <ele>150.579</ele>
        <time>2017-07-05T08:54:10Z</time>
      </trkpt>
      <trkpt lat="48.37889" lon="2.66214">
        <ele>150.525</ele>
        <time>2017-07-05T08:54:26Z</time>
      </trkpt>
      <trkpt lat="48.37892" lon="2.66196">
        <ele>150.494</ele>
        <time>2017-07-05T08:54:34Z</time>
      </trkpt>
      <trkpt lat="48.37893" lon="2.6618">
        <ele>150.458</ele>
        <time>2017-07-05T08:54:43Z</time>
      </trkpt>
      <trkpt lat="48.37893" lon="2.6616">
        <ele>150.426</ele>
        <time>2017-07-05T08:54:55Z</time>
      </trkpt>
      <trkpt lat="48.37894" lon="2.66134">
        <ele>150.388</ele>
        <time>2017-07-05T08:55:10Z</time>
      </trkpt>
      <trkpt lat="48.37899" lon="2.66106">
        <ele>150.33</ele>
        <time>2017-07-05T08:55:26Z</time>
      </trkpt>
      <trkpt lat="48.37902" lon="2.66089">
        <ele>150.284</ele>
        <time>2017-07-05T08:55:36Z</time>
      </trkpt>
      <trkpt lat="48.37902" lon="2.6606">
        <ele>150.216</ele>
        <time>2017-07-05T08:55:52Z</time>
      </trkpt>
      <trkpt lat="48.37899" lon="2.66034">
        <ele>150.153</ele>
        <time>2017-07-05T08:56:06Z</time>
      </trkpt>
      <trkpt lat="48.37899" lon="2.6602">
        <ele>150.117</ele>
        <time>2017-07-05T08:56:14Z</time>
      </trkpt>
      <trkpt lat="48.37896" lon="2.65989">
        <ele>150.03</ele>
        <time>2017-07-05T08:56:31Z</time>
      </trkpt>
      <trkpt lat="48.37896" lon="2.65956">
        <ele>149.95</ele>
        <time>2017-07-05T08:56:49Z</time>
      </trkpt>
      <trkpt lat="48.379" lon="2.65932">
        <ele>149.878</ele>
        <time>2017-07-05T08:57:01Z</time>
      </trkpt>
      <trkpt lat="48.37902" lon="2.65906">
        <ele>149.75</ele>
        <time>2017-07-05T08:57:15Z</time>
      </trkpt>
      <trkpt lat="48.37904" lon="2.65878">
        <ele>149.583</ele>
        <time>2017-07-05T08:57:31Z</time>
      </trkpt>
      <trkpt lat="48.37905" lon="2.65849">
        <ele>149.38</ele>
        <time>2017-07-05T08:57:48Z</time>
      </trkpt>
      <trkpt lat="48.37904" lon="2.65825">
        <ele>149.234</ele>
        <time>2017-07-05T08:57:59Z</time>
      </trkpt>
      <trkpt lat="48.37902" lon="2.65804">
        <ele>149.067</ele>
        <time>2017-07-05T08:58:11Z</time>
      </trkpt>
      <trkpt lat="48.37901" lon="2.65781">
        <ele>148.887</ele>
        <time>2017-07-05T08:58:24Z</time>
      </trkpt>
      <trkpt lat="48.37898" lon="2.65754">
        <ele>148.7</ele>
        <time>2017-07-05T08:58:37Z</time>
      </trkpt>
      <trkpt lat="48.37899" lon="2.65734">
        <ele>148.519</ele>
        <time>2017-07-05T08:58:50Z</time>
      </trkpt>
      <trkpt lat="48.37898" lon="2.65695">
        <ele>148.283</ele>
        <time>2017-07-05T08:59:09Z</time>
      </trkpt>
      <trkpt lat="48.37903" lon="2.6567">
        <ele>148.147</ele>
        <time>2017-07-05T08:59:21Z</time>
      </trkpt>
      <trkpt lat="48.37905" lon="2.65644">
        <ele>147.993</ele>
        <time>2017-07-05T08:59:35Z</time>
      </trkpt>
      <trkpt lat="48.37903" lon="2.65613">
        <ele>147.802</ele>
        <time>2017-07-05T08:59:52Z</time>
      </trkpt>
      <trkpt lat="48.37915" lon="2.65589">
        <ele>147.611</ele>
        <time>2017-07-05T09:00:11Z</time>
      </trkpt>
      <trkpt lat="48.3792" lon="2.65563">
        <ele>147.462</ele>
        <time>2017-07-05T09:00:29Z</time>
      </trkpt>
      <trkpt lat="48.37925" lon="2.6555">
        <ele>147.394</ele>
        <time>2017-07-05T09:00:37Z</time>
      </trkpt>
      <trkpt lat="48.37938" lon="2.65529">
        <ele>147.28</ele>
        <time>2017-07-05T09:00:53Z</time>
      </trkpt>
      <trkpt lat="48.37948" lon="2.65511">
        <ele>147.193</ele>
        <time>2017-07-05T09:01:04Z</time>
      </trkpt>
      <trkpt lat="48.37954" lon="2.65498">
        <ele>147.104</ele>
        <time>2017-07-05T09:01:14Z</time>
      </trkpt>
      <trkpt lat="48.37965" lon="2.65474">
        <ele>146.963</ele>
        <time>2017-07-05T09:01:30Z</time>
      </trkpt>
      <trkpt lat="48.37979" lon="2.65463">
        <ele>146.878</ele>
        <time>2017-07-05T09:01:42Z</time>
      </trkpt>
      <trkpt lat="48.37992" lon="2.65461">
        <ele>146.782</ele>
        <time>2017-07-05T09:01:59Z</time>
      </trkpt>
      <trkpt lat="48.38018" lon="2.65463">
        <ele>146.659</ele>
        <time>2017-07-05T09:02:16Z</time>
      </trkpt>
      <trkpt lat="48.38032" lon="2.65464">
        <ele>146.603</ele>
        <time>2017-07-05T09:02:23Z</time>
      </trkpt>
      <trkpt lat="48.38038" lon="2.65456">
        <ele>146.556</ele>
        <time>2017-07-05T09:02:29Z</time>
      </trkpt>
      <trkpt lat="48.38038" lon="2.65456">
        <ele>146.556</ele>
        <time>2017-07-05T09:02:35Z</time>
      </trkpt>
      <trkpt lat="48.38038" lon="2.65456">
        <ele>88.4</ele>
        <time>2017-07-05T09:02:35Z</time>
      </trkpt>
      <trkpt lat="48.38038" lon="2.65456">
        <ele>88.4</ele>
        <time>2017-07-05T09:03:25Z</time>
      </trkpt>
      <trkpt lat="48.38053" lon="2.65447">
        <ele>146.097</ele>
        <time>2017-07-05T09:03:25Z</time>
      </trkpt>
      <trkpt lat="48.38049" lon="2.65434">
        <ele>145.937</ele>
        <time>2017-07-05T09:03:37Z</time>
      </trkpt>
      <trkpt lat="48.38048" lon="2.65423">
        <ele>145.815</ele>
        <time>2017-07-05T09:03:47Z</time>
      </trkpt>
      <trkpt lat="48.38048" lon="2.65423">
        <ele>90</ele>
        <time>2017-07-05T09:03:54Z</time>
      </trkpt>
      <trkpt lat="48.38048" lon="2.65423">
        <ele>90</ele>
        <time>2017-07-05T09:04:29Z</time>
      </trkpt>
      <trkpt lat="48.38039" lon="2.65378">
        <ele>145.377</ele>
        <time>2017-07-05T09:04:29Z</time>
      </trkpt>
      <trkpt lat="48.38037" lon="2.65358">
        <ele>145.255</ele>
        <time>2017-07-05T09:04:40Z</time>
      </trkpt>
      <trkpt lat="48.38032" lon="2.65337">
        <ele>145.112</ele>
        <time>2017-07-05T09:04:52Z</time>
      </trkpt>
      <trkpt lat="48.38027" lon="2.65301">
        <ele>144.869</ele>
        <time>2017-07-05T09:05:10Z</time>
      </trkpt>
      <trkpt lat="48.38028" lon="2.65279">
        <ele>144.713</ele>
        <time>2017-07-05T09:05:21Z</time>
      </trkpt>
      <trkpt lat="48.3803" lon="2.65263">
        <ele>144.591</ele>
        <time>2017-07-05T09:05:30Z</time>
      </trkpt>
      <trkpt lat="48.38027" lon="2.65238">
        <ele>144.378</ele>
        <time>2017-07-05T09:05:45Z</time>
      </trkpt>
      <trkpt lat="48.38028" lon="2.65223">
        <ele>144.265</ele>
        <time>2017-07-05T09:05:53Z</time>
      </trkpt>
      <trkpt lat="48.38029" lon="2.65194">
        <ele>144.056</ele>
        <time>2017-07-05T09:06:09Z</time>
      </trkpt>
      <trkpt lat="48.38031" lon="2.65164">
        <ele>143.828</ele>
        <time>2017-07-05T09:06:29Z</time>
      </trkpt>
      <trkpt lat="48.38031" lon="2.65164">
        <ele>143.828</ele>
        <time>2017-07-05T09:08:58Z</time>
      </trkpt>
      <trkpt lat="48.38027" lon="2.65132">
        <ele>138.469</ele>
        <time>2017-07-05T09:19:22Z</time>
      </trkpt>
      <trkpt lat="48.38027" lon="2.65132">
        <ele>138.469</ele>
        <time>2017-07-05T09:19:30Z</time>
      </trkpt>
      <trkpt lat="48.38027" lon="2.65132">
        <ele>89</ele>
        <time>2017-07-05T09:19:30Z</time>
      </trkpt>
      <trkpt lat="48.38027" lon="2.65132">
        <ele>89</ele>
        <time>2017-07-05T09:19:36Z</time>
      </trkpt>
      <trkpt lat="48.38028" lon="2.65116">
        <ele>138.409</ele>
        <time>2017-07-05T09:19:36Z</time>
      </trkpt>
      <trkpt lat="48.38037" lon="2.65095">
        <ele>138.343</ele>
        <time>2017-07-05T09:19:52Z</time>
      </trkpt>
      <trkpt lat="48.3804" lon="2.65089">
        <ele>138.315</ele>
        <time>2017-07-05T09:19:59Z</time>
      </trkpt>
      <trkpt lat="48.3804" lon="2.65089">
        <ele>88.5</ele>
        <time>2017-07-05T09:20:07Z</time>
      </trkpt>
      <trkpt lat="48.3804" lon="2.65089">
        <ele>88.5</ele>
        <time>2017-07-05T09:21:17Z</time>
      </trkpt>
      <trkpt lat="48.38042" lon="2.65045">
        <ele>138.172</ele>
        <time>2017-07-05T09:21:17Z</time>
      </trkpt>
      <trkpt lat="48.38039" lon="2.65001">
        <ele>138.074</ele>
        <time>2017-07-05T09:22:02Z</time>
      </trkpt>
      <trkpt lat="48.38043" lon="2.64985">
        <ele>138.024</ele>
        <time>2017-07-05T09:22:13Z</time>
      </trkpt>
      <trkpt lat="48.38045" lon="2.64965">
        <ele>137.954</ele>
        <time>2017-07-05T09:22:28Z</time>
      </trkpt>
      <trkpt lat="48.38041" lon="2.64945">
        <ele>137.909</ele>
        <time>2017-07-05T09:22:39Z</time>
      </trkpt>
      <trkpt lat="48.3804" lon="2.64922">
        <ele>137.846</ele>
        <time>2017-07-05T09:22:56Z</time>
      </trkpt>
      <trkpt lat="48.3804" lon="2.64891">
        <ele>137.767</ele>
        <time>2017-07-05T09:23:15Z</time>
      </trkpt>
      <trkpt lat="48.38041" lon="2.64875">
        <ele>137.733</ele>
        <time>2017-07-05T09:23:24Z</time>
      </trkpt>
      <trkpt lat="48.38041" lon="2.64875">
        <ele>91</ele>
        <time>2017-07-05T09:23:31Z</time>
      </trkpt>
      <trkpt lat="48.38041" lon="2.64875">
        <ele>91</ele>
        <time>2017-07-05T09:23:35Z</time>
      </trkpt>
      <trkpt lat="48.38042" lon="2.6487">
        <ele>137.673</ele>
        <time>2017-07-05T09:23:35Z</time>
      </trkpt>
      <trkpt lat="48.38044" lon="2.64863">
        <ele>137.645</ele>
        <time>2017-07-05T09:23:39Z</time>
      </trkpt>
      <trkpt lat="48.38044" lon="2.64863">
        <ele>91.5</ele>
        <time>2017-07-05T09:23:46Z</time>
      </trkpt>
      <trkpt lat="48.38044" lon="2.64863">
        <ele>91.5</ele>
        <time>2017-07-05T09:23:49Z</time>
      </trkpt>
      <trkpt lat="48.38046" lon="2.64852">
        <ele>137.581</ele>
        <time>2017-07-05T09:23:49Z</time>
      </trkpt>
      <trkpt lat="48.38046" lon="2.64852">
        <ele>137.581</ele>
        <time>2017-07-05T09:23:56Z</time>
      </trkpt>
      <trkpt lat="48.38046" lon="2.64852">
        <ele>91.7</ele>
        <time>2017-07-05T09:23:56Z</time>
      </trkpt>
      <trkpt lat="48.38046" lon="2.64852">
        <ele>91.7</ele>
        <time>2017-07-05T09:24:08Z</time>
      </trkpt>
      <trkpt lat="48.38052" lon="2.64831">
        <ele>137.462</ele>
        <time>2017-07-05T09:24:08Z</time>
      </trkpt>
      <trkpt lat="48.38051" lon="2.6481">
        <ele>137.381</ele>
        <time>2017-07-05T09:24:21Z</time>
      </trkpt>
      <trkpt lat="48.38055" lon="2.64787">
        <ele>137.271</ele>
        <time>2017-07-05T09:24:37Z</time>
      </trkpt>
      <trkpt lat="48.38058" lon="2.64764">
        <ele>137.179</ele>
        <time>2017-07-05T09:24:53Z</time>
      </trkpt>
      <trkpt lat="48.38056" lon="2.64731">
        <ele>137.087</ele>
        <time>2017-07-05T09:25:14Z</time>
      </trkpt>
      <trkpt lat="48.38052" lon="2.64695">
        <ele>137.035</ele>
        <time>2017-07-05T09:25:34Z</time>
      </trkpt>
      <trkpt lat="48.38052" lon="2.64675">
        <ele>137.008</ele>
        <time>2017-07-05T09:25:46Z</time>
      </trkpt>
      <trkpt lat="48.38055" lon="2.64638">
        <ele>136.946</ele>
        <time>2017-07-05T09:26:07Z</time>
      </trkpt>
      <trkpt lat="48.38059" lon="2.64611">
        <ele>136.906</ele>
        <time>2017-07-05T09:26:24Z</time>
      </trkpt>
      <trkpt lat="48.38066" lon="2.64595">
        <ele>136.869</ele>
        <time>2017-07-05T09:26:37Z</time>
      </trkpt>
      <trkpt lat="48.3807" lon="2.64577">
        <ele>136.832</ele>
        <time>2017-07-05T09:26:49Z</time>
      </trkpt>
      <trkpt lat="48.38077" lon="2.64549">
        <ele>136.798</ele>
        <time>2017-07-05T09:27:05Z</time>
      </trkpt>
      <trkpt lat="48.38082" lon="2.64539">
        <ele>136.781</ele>
        <time>2017-07-05T09:27:13Z</time>
      </trkpt>
      <trkpt lat="48.38085" lon="2.64522">
        <ele>136.759</ele>
        <time>2017-07-05T09:27:25Z</time>
      </trkpt>
      <trkpt lat="48.38089" lon="2.64503">
        <ele>136.733</ele>
        <time>2017-07-05T09:27:37Z</time>
      </trkpt>
      <trkpt lat="48.38092" lon="2.64484">
        <ele>136.711</ele>
        <time>2017-07-05T09:27:52Z</time>
      </trkpt>
      <trkpt lat="48.38097" lon="2.64467">
        <ele>136.696</ele>
        <time>2017-07-05T09:28:06Z</time>
      </trkpt>
      <trkpt lat="48.38105" lon="2.64433">
        <ele>136.687</ele>
        <time>2017-07-05T09:28:26Z</time>
      </trkpt>
      <trkpt lat="48.38112" lon="2.6441">
        <ele>136.678</ele>
        <time>2017-07-05T09:28:40Z</time>
      </trkpt>
      <trkpt lat="48.38116" lon="2.64395">
        <ele>136.662</ele>
        <time>2017-07-05T09:28:52Z</time>
      </trkpt>
      <trkpt lat="48.38119" lon="2.64373">
        <ele>136.652</ele>
        <time>2017-07-05T09:29:06Z</time>
      </trkpt>
      <trkpt lat="48.38122" lon="2.64356">
        <ele>136.644</ele>
        <time>2017-07-05T09:29:21Z</time>
      </trkpt>
      <trkpt lat="48.38124" lon="2.64337">
        <ele>136.633</ele>
        <time>2017-07-05T09:29:32Z</time>
      </trkpt>
      <trkpt lat="48.38127" lon="2.64304">
        <ele>136.605</ele>
        <time>2017-07-05T09:29:51Z</time>
      </trkpt>
      <trkpt lat="48.38128" lon="2.64276">
        <ele>136.591</ele>
        <time>2017-07-05T09:30:06Z</time>
      </trkpt>
      <trkpt lat="48.38128" lon="2.64245">
        <ele>136.606</ele>
        <time>2017-07-05T09:30:24Z</time>
      </trkpt>
      <trkpt lat="48.38132" lon="2.64214">
        <ele>136.649</ele>
        <time>2017-07-05T09:30:38Z</time>
      </trkpt>
      <trkpt lat="48.38133" lon="2.64194">
        <ele>136.692</ele>
        <time>2017-07-05T09:30:47Z</time>
      </trkpt>
      <trkpt lat="48.38133" lon="2.64178">
        <ele>136.743</ele>
        <time>2017-07-05T09:30:57Z</time>
      </trkpt>
      <trkpt lat="48.38135" lon="2.64158">
        <ele>136.787</ele>
        <time>2017-07-05T09:31:12Z</time>
      </trkpt>
      <trkpt lat="48.38135" lon="2.64158">
        <ele>136.787</ele>
        <time>2017-07-05T09:31:17Z</time>
      </trkpt>
      <trkpt lat="48.38135" lon="2.64158">
        <ele>101.8</ele>
        <time>2017-07-05T09:31:17Z</time>
      </trkpt>
      <trkpt lat="48.38135" lon="2.64158">
        <ele>101.8</ele>
        <time>2017-07-05T09:31:22Z</time>
      </trkpt>
      <trkpt lat="48.38137" lon="2.64145">
        <ele>136.811</ele>
        <time>2017-07-05T09:31:22Z</time>
      </trkpt>
      <trkpt lat="48.3814" lon="2.64126">
        <ele>136.831</ele>
        <time>2017-07-05T09:31:30Z</time>
      </trkpt>
      <trkpt lat="48.38144" lon="2.64108">
        <ele>136.819</ele>
        <time>2017-07-05T09:31:44Z</time>
      </trkpt>
      <trkpt lat="48.38145" lon="2.64079">
        <ele>136.756</ele>
        <time>2017-07-05T09:31:59Z</time>
      </trkpt>
      <trkpt lat="48.38147" lon="2.64063">
        <ele>136.718</ele>
        <time>2017-07-05T09:32:09Z</time>
      </trkpt>
      <trkpt lat="48.38148" lon="2.64036">
        <ele>136.712</ele>
        <time>2017-07-05T09:32:27Z</time>
      </trkpt>
      <trkpt lat="48.38151" lon="2.64018">
        <ele>136.742</ele>
        <time>2017-07-05T09:32:40Z</time>
      </trkpt>
      <trkpt lat="48.38154" lon="2.63994">
        <ele>136.803</ele>
        <time>2017-07-05T09:32:55Z</time>
      </trkpt>
      <trkpt lat="48.38155" lon="2.63978">
        <ele>136.862</ele>
        <time>2017-07-05T09:33:04Z</time>
      </trkpt>
      <trkpt lat="48.3816" lon="2.63955">
        <ele>136.959</ele>
        <time>2017-07-05T09:33:22Z</time>
      </trkpt>
      <trkpt lat="48.38169" lon="2.63928">
        <ele>137.161</ele>
        <time>2017-07-05T09:33:40Z</time>
      </trkpt>
      <trkpt lat="48.38171" lon="2.63909">
        <ele>137.351</ele>
        <time>2017-07-05T09:33:53Z</time>
      </trkpt>
      <trkpt lat="48.38172" lon="2.63896">
        <ele>137.467</ele>
        <time>2017-07-05T09:34:00Z</time>
      </trkpt>
      <trkpt lat="48.3818" lon="2.63868">
        <ele>137.832</ele>
        <time>2017-07-05T09:34:20Z</time>
      </trkpt>
      <trkpt lat="48.38185" lon="2.63844">
        <ele>138.253</ele>
        <time>2017-07-05T09:34:38Z</time>
      </trkpt>
      <trkpt lat="48.38187" lon="2.63822">
        <ele>138.646</ele>
        <time>2017-07-05T09:34:51Z</time>
      </trkpt>
      <trkpt lat="48.38191" lon="2.63807">
        <ele>139.056</ele>
        <time>2017-07-05T09:35:00Z</time>
      </trkpt>
      <trkpt lat="48.38197" lon="2.63784">
        <ele>139.585</ele>
        <time>2017-07-05T09:35:11Z</time>
      </trkpt>
      <trkpt lat="48.38201" lon="2.63773">
        <ele>139.968</ele>
        <time>2017-07-05T09:35:20Z</time>
      </trkpt>
      <trkpt lat="48.38202" lon="2.63743">
        <ele>140.783</ele>
        <time>2017-07-05T09:35:38Z</time>
      </trkpt>
      <trkpt lat="48.38206" lon="2.63722">
        <ele>141.299</ele>
        <time>2017-07-05T09:35:49Z</time>
      </trkpt>
      <trkpt lat="48.38212" lon="2.63711">
        <ele>141.742</ele>
        <time>2017-07-05T09:35:58Z</time>
      </trkpt>
      <trkpt lat="48.38217" lon="2.63687">
        <ele>142.571</ele>
        <time>2017-07-05T09:36:15Z</time>
      </trkpt>
      <trkpt lat="48.3822" lon="2.63664">
        <ele>143.191</ele>
        <time>2017-07-05T09:36:28Z</time>
      </trkpt>
      <trkpt lat="48.38222" lon="2.63636">
        <ele>144.387</ele>
        <time>2017-07-05T09:36:49Z</time>
      </trkpt>
      <trkpt lat="48.38227" lon="2.6362">
        <ele>145.099</ele>
        <time>2017-07-05T09:37:01Z</time>
      </trkpt>
      <trkpt lat="48.38232" lon="2.63602">
        <ele>145.738</ele>
        <time>2017-07-05T09:37:11Z</time>
      </trkpt>
      <trkpt lat="48.38229" lon="2.63596">
        <ele>146.052</ele>
        <time>2017-07-05T09:37:16Z</time>
      </trkpt>
      <trkpt lat="48.38229" lon="2.63596">
        <ele>124.2</ele>
        <time>2017-07-05T09:37:23Z</time>
      </trkpt>
      <trkpt lat="48.38229" lon="2.63596">
        <ele>124.2</ele>
        <time>2017-07-05T09:37:53Z</time>
      </trkpt>
      <trkpt lat="48.38232" lon="2.63578">
        <ele>149.037</ele>
        <time>2017-07-05T09:37:53Z</time>
      </trkpt>
      <trkpt lat="48.38232" lon="2.63578">
        <ele>149.037</ele>
        <time>2017-07-05T09:38:00Z</time>
      </trkpt>
      <trkpt lat="48.38232" lon="2.63578">
        <ele>124.5</ele>
        <time>2017-07-05T09:38:00Z</time>
      </trkpt>
      <trkpt lat="48.38232" lon="2.63578">
        <ele>124.5</ele>
        <time>2017-07-05T09:38:11Z</time>
      </trkpt>
      <trkpt lat="48.38244" lon="2.63564">
        <ele>150.215</ele>
        <time>2017-07-05T09:38:11Z</time>
      </trkpt>
      <trkpt lat="48.38251" lon="2.6356">
        <ele>150.829</ele>
        <time>2017-07-05T09:38:21Z</time>
      </trkpt>
      <trkpt lat="48.38274" lon="2.63541">
        <ele>152.316</ele>
        <time>2017-07-05T09:38:48Z</time>
      </trkpt>
      <trkpt lat="48.38281" lon="2.63534">
        <ele>153.008</ele>
        <time>2017-07-05T09:39:00Z</time>
      </trkpt>
      <trkpt lat="48.38294" lon="2.6353">
        <ele>153.446</ele>
        <time>2017-07-05T09:39:08Z</time>
      </trkpt>
      <trkpt lat="48.38305" lon="2.63522">
        <ele>154.095</ele>
        <time>2017-07-05T09:39:21Z</time>
      </trkpt>
      <trkpt lat="48.38314" lon="2.63507">
        <ele>154.689</ele>
        <time>2017-07-05T09:39:32Z</time>
      </trkpt>
      <trkpt lat="48.38322" lon="2.63489">
        <ele>155.294</ele>
        <time>2017-07-05T09:39:44Z</time>
      </trkpt>
      <trkpt lat="48.38333" lon="2.63473">
        <ele>155.898</ele>
        <time>2017-07-05T09:39:57Z</time>
      </trkpt>
      <trkpt lat="48.3834" lon="2.63461">
        <ele>156.237</ele>
        <time>2017-07-05T09:40:05Z</time>
      </trkpt>
      <trkpt lat="48.38351" lon="2.63436">
        <ele>156.845</ele>
        <time>2017-07-05T09:40:20Z</time>
      </trkpt>
      <trkpt lat="48.38359" lon="2.63421">
        <ele>157.178</ele>
        <time>2017-07-05T09:40:30Z</time>
      </trkpt>
      <trkpt lat="48.38368" lon="2.63401">
        <ele>157.787</ele>
        <time>2017-07-05T09:40:46Z</time>
      </trkpt>
      <trkpt lat="48.38374" lon="2.63384">
        <ele>158.167</ele>
        <time>2017-07-05T09:40:56Z</time>
      </trkpt>
      <trkpt lat="48.38384" lon="2.63367">
        <ele>158.706</ele>
        <time>2017-07-05T09:41:12Z</time>
      </trkpt>
      <trkpt lat="48.38397" lon="2.63337">
        <ele>159.185</ele>
        <time>2017-07-05T09:41:30Z</time>
      </trkpt>
      <trkpt lat="48.38411" lon="2.63311">
        <ele>159.483</ele>
        <time>2017-07-05T09:41:44Z</time>
      </trkpt>
      <trkpt lat="48.38423" lon="2.63285">
        <ele>159.966</ele>
        <time>2017-07-05T09:42:00Z</time>
      </trkpt>
      <trkpt lat="48.38431" lon="2.63261">
        <ele>160.564</ele>
        <time>2017-07-05T09:42:17Z</time>
      </trkpt>
      <trkpt lat="48.38442" lon="2.63239">
        <ele>160.931</ele>
        <time>2017-07-05T09:42:30Z</time>
      </trkpt>
      <trkpt lat="48.38449" lon="2.63223">
        <ele>161.197</ele>
        <time>2017-07-05T09:42:42Z</time>
      </trkpt>
      <trkpt lat="48.38454" lon="2.6321">
        <ele>161.336</ele>
        <time>2017-07-05T09:42:49Z</time>
      </trkpt>
      <trkpt lat="48.38463" lon="2.63189">
        <ele>161.563</ele>
        <time>2017-07-05T09:43:02Z</time>
      </trkpt>
      <trkpt lat="48.3847" lon="2.6317">
        <ele>161.771</ele>
        <time>2017-07-05T09:43:16Z</time>
      </trkpt>
      <trkpt lat="48.38483" lon="2.63148">
        <ele>161.963</ele>
        <time>2017-07-05T09:43:33Z</time>
      </trkpt>
      <trkpt lat="48.38489" lon="2.63133">
        <ele>162.09</ele>
        <time>2017-07-05T09:43:44Z</time>
      </trkpt>
      <trkpt lat="48.38502" lon="2.63111">
        <ele>162.214</ele>
        <time>2017-07-05T09:43:58Z</time>
      </trkpt>
      <trkpt lat="48.38506" lon="2.63106">
        <ele>162.251</ele>
        <time>2017-07-05T09:44:03Z</time>
      </trkpt>
      <trkpt lat="48.38506" lon="2.63106">
        <ele>128</ele>
        <time>2017-07-05T09:44:10Z</time>
      </trkpt>
      <trkpt lat="48.38506" lon="2.63106">
        <ele>128</ele>
        <time>2017-07-05T09:44:29Z</time>
      </trkpt>
      <trkpt lat="48.38525" lon="2.63093">
        <ele>162.48</ele>
        <time>2017-07-05T09:44:29Z</time>
      </trkpt>
      <trkpt lat="48.38523" lon="2.63078">
        <ele>162.588</ele>
        <time>2017-07-05T09:44:42Z</time>
      </trkpt>
      <trkpt lat="48.38523" lon="2.63078">
        <ele>128</ele>
        <time>2017-07-05T09:44:52Z</time>
      </trkpt>
      <trkpt lat="48.38523" lon="2.63078">
        <ele>128</ele>
        <time>2017-07-05T09:45:23Z</time>
      </trkpt>
      <trkpt lat="48.38525" lon="2.63057">
        <ele>162.786</ele>
        <time>2017-07-05T09:45:23Z</time>
      </trkpt>
      <trkpt lat="48.38529" lon="2.63034">
        <ele>162.936</ele>
        <time>2017-07-05T09:45:40Z</time>
      </trkpt>
      <trkpt lat="48.38555" lon="2.63004">
        <ele>163.342</ele>
        <time>2017-07-05T09:46:16Z</time>
      </trkpt>
      <trkpt lat="48.3856" lon="2.62994">
        <ele>163.428</ele>
        <time>2017-07-05T09:46:23Z</time>
      </trkpt>
      <trkpt lat="48.38568" lon="2.62971">
        <ele>163.592</ele>
        <time>2017-07-05T09:46:39Z</time>
      </trkpt>
      <trkpt lat="48.38572" lon="2.62953">
        <ele>163.67</ele>
        <time>2017-07-05T09:46:47Z</time>
      </trkpt>
      <trkpt lat="48.3858" lon="2.62931">
        <ele>163.805</ele>
        <time>2017-07-05T09:47:01Z</time>
      </trkpt>
      <trkpt lat="48.38587" lon="2.62909">
        <ele>163.9</ele>
        <time>2017-07-05T09:47:13Z</time>
      </trkpt>
      <trkpt lat="48.38592" lon="2.62887">
        <ele>163.997</ele>
        <time>2017-07-05T09:47:27Z</time>
      </trkpt>
      <trkpt lat="48.38598" lon="2.62861">
        <ele>164.187</ele>
        <time>2017-07-05T09:47:46Z</time>
      </trkpt>
      <trkpt lat="48.38607" lon="2.6283">
        <ele>164.37</ele>
        <time>2017-07-05T09:48:06Z</time>
      </trkpt>
      <trkpt lat="48.38615" lon="2.62803">
        <ele>164.436</ele>
        <time>2017-07-05T09:48:22Z</time>
      </trkpt>
      <trkpt lat="48.38623" lon="2.62773">
        <ele>164.511</ele>
        <time>2017-07-05T09:48:38Z</time>
      </trkpt>
      <trkpt lat="48.3863" lon="2.62757">
        <ele>164.575</ele>
        <time>2017-07-05T09:48:48Z</time>
      </trkpt>
      <trkpt lat="48.38637" lon="2.62734">
        <ele>164.576</ele>
        <time>2017-07-05T09:49:00Z</time>
      </trkpt>
      <trkpt lat="48.3864" lon="2.62719">
        <ele>164.564</ele>
        <time>2017-07-05T09:49:12Z</time>
      </trkpt>
      <trkpt lat="48.38645" lon="2.62693">
        <ele>164.529</ele>
        <time>2017-07-05T09:49:26Z</time>
      </trkpt>
      <trkpt lat="48.38652" lon="2.62665">
        <ele>164.4</ele>
        <time>2017-07-05T09:49:43Z</time>
      </trkpt>
      <trkpt lat="48.38656" lon="2.62642">
        <ele>164.294</ele>
        <time>2017-07-05T09:49:57Z</time>
      </trkpt>
      <trkpt lat="48.38663" lon="2.62622">
        <ele>164.289</ele>
        <time>2017-07-05T09:50:10Z</time>
      </trkpt>
      <trkpt lat="48.38669" lon="2.62594">
        <ele>164.453</ele>
        <time>2017-07-05T09:50:26Z</time>
      </trkpt>
      <trkpt lat="48.38672" lon="2.62578">
        <ele>164.539</ele>
        <time>2017-07-05T09:50:34Z</time>
      </trkpt>
      <trkpt lat="48.38676" lon="2.62558">
        <ele>164.764</ele>
        <time>2017-07-05T09:50:46Z</time>
      </trkpt>
      <trkpt lat="48.38683" lon="2.62538">
        <ele>165.015</ele>
        <time>2017-07-05T09:50:58Z</time>
      </trkpt>
      <trkpt lat="48.38691" lon="2.62518">
        <ele>165.169</ele>
        <time>2017-07-05T09:51:08Z</time>
      </trkpt>
      <trkpt lat="48.38696" lon="2.62505">
        <ele>165.285</ele>
        <time>2017-07-05T09:51:17Z</time>
      </trkpt>
      <trkpt lat="48.38696" lon="2.62477">
        <ele>165.451</ele>
        <time>2017-07-05T09:51:32Z</time>
      </trkpt>
      <trkpt lat="48.38691" lon="2.62446">
        <ele>165.658</ele>
        <time>2017-07-05T09:51:49Z</time>
      </trkpt>
      <trkpt lat="48.38688" lon="2.62427">
        <ele>165.772</ele>
        <time>2017-07-05T09:52:00Z</time>
      </trkpt>
      <trkpt lat="48.38685" lon="2.62403">
        <ele>165.888</ele>
        <time>2017-07-05T09:52:15Z</time>
      </trkpt>
      <trkpt lat="48.38681" lon="2.62375">
        <ele>166.016</ele>
        <time>2017-07-05T09:52:32Z</time>
      </trkpt>
      <trkpt lat="48.38678" lon="2.62349">
        <ele>166.129</ele>
        <time>2017-07-05T09:52:46Z</time>
      </trkpt>
      <trkpt lat="48.38674" lon="2.62323">
        <ele>166.225</ele>
        <time>2017-07-05T09:53:01Z</time>
      </trkpt>
      <trkpt lat="48.38669" lon="2.623">
        <ele>166.326</ele>
        <time>2017-07-05T09:53:15Z</time>
      </trkpt>
      <trkpt lat="48.38665" lon="2.62277">
        <ele>166.405</ele>
        <time>2017-07-05T09:53:28Z</time>
      </trkpt>
      <trkpt lat="48.38659" lon="2.62246">
        <ele>166.434</ele>
        <time>2017-07-05T09:53:44Z</time>
      </trkpt>
      <trkpt lat="48.38658" lon="2.62229">
        <ele>166.451</ele>
        <time>2017-07-05T09:53:53Z</time>
      </trkpt>
      <trkpt lat="48.38654" lon="2.6221">
        <ele>166.481</ele>
        <time>2017-07-05T09:54:05Z</time>
      </trkpt>
      <trkpt lat="48.38652" lon="2.62189">
        <ele>166.518</ele>
        <time>2017-07-05T09:54:15Z</time>
      </trkpt>
      <trkpt lat="48.38649" lon="2.62171">
        <ele>166.553</ele>
        <time>2017-07-05T09:54:27Z</time>
      </trkpt>
      <trkpt lat="48.38642" lon="2.62139">
        <ele>166.66</ele>
        <time>2017-07-05T09:54:46Z</time>
      </trkpt>
      <trkpt lat="48.38639" lon="2.62104">
        <ele>166.822</ele>
        <time>2017-07-05T09:55:03Z</time>
      </trkpt>
      <trkpt lat="48.38637" lon="2.62081">
        <ele>166.975</ele>
        <time>2017-07-05T09:55:18Z</time>
      </trkpt>
      <trkpt lat="48.38634" lon="2.62053">
        <ele>167.105</ele>
        <time>2017-07-05T09:55:34Z</time>
      </trkpt>
      <trkpt lat="48.38627" lon="2.6202">
        <ele>167.182</ele>
        <time>2017-07-05T09:55:50Z</time>
      </trkpt>
      <trkpt lat="48.38623" lon="2.61999">
        <ele>167.234</ele>
        <time>2017-07-05T09:56:02Z</time>
      </trkpt>
      <trkpt lat="48.38619" lon="2.61977">
        <ele>167.313</ele>
        <time>2017-07-05T09:56:15Z</time>
      </trkpt>
      <trkpt lat="48.38612" lon="2.61947">
        <ele>167.399</ele>
        <time>2017-07-05T09:56:32Z</time>
      </trkpt>
      <trkpt lat="48.38609" lon="2.61923">
        <ele>167.495</ele>
        <time>2017-07-05T09:56:44Z</time>
      </trkpt>
      <trkpt lat="48.38607" lon="2.61895">
        <ele>167.625</ele>
        <time>2017-07-05T09:56:59Z</time>
      </trkpt>
      <trkpt lat="48.38604" lon="2.61876">
        <ele>167.717</ele>
        <time>2017-07-05T09:57:14Z</time>
      </trkpt>
      <trkpt lat="48.38599" lon="2.6186">
        <ele>167.78</ele>
        <time>2017-07-05T09:57:24Z</time>
      </trkpt>
      <trkpt lat="48.38599" lon="2.6186">
        <ele>126</ele>
        <time>2017-07-05T09:57:31Z</time>
      </trkpt>
      <trkpt lat="48.38599" lon="2.6186">
        <ele>126</ele>
        <time>2017-07-05T09:58:22Z</time>
      </trkpt>
      <trkpt lat="48.38588" lon="2.61816">
        <ele>168.05</ele>
        <time>2017-07-05T09:58:22Z</time>
      </trkpt>
      <trkpt lat="48.38589" lon="2.61793">
        <ele>168.102</ele>
        <time>2017-07-05T09:58:34Z</time>
      </trkpt>
      <trkpt lat="48.38585" lon="2.61768">
        <ele>168.12</ele>
        <time>2017-07-05T09:58:49Z</time>
      </trkpt>
      <trkpt lat="48.3858" lon="2.61733">
        <ele>168.143</ele>
        <time>2017-07-05T09:59:09Z</time>
      </trkpt>
      <trkpt lat="48.38576" lon="2.61706">
        <ele>168.179</ele>
        <time>2017-07-05T09:59:23Z</time>
      </trkpt>
      <trkpt lat="48.38572" lon="2.61686">
        <ele>168.238</ele>
        <time>2017-07-05T09:59:33Z</time>
      </trkpt>
      <trkpt lat="48.3857" lon="2.61671">
        <ele>168.303</ele>
        <time>2017-07-05T09:59:41Z</time>
      </trkpt>
      <trkpt lat="48.38571" lon="2.61659">
        <ele>168.354</ele>
        <time>2017-07-05T09:59:49Z</time>
      </trkpt>
      <trkpt lat="48.38567" lon="2.61639">
        <ele>168.392</ele>
        <time>2017-07-05T10:00:02Z</time>
      </trkpt>
      <trkpt lat="48.38563" lon="2.61609">
        <ele>168.42</ele>
        <time>2017-07-05T10:00:18Z</time>
      </trkpt>
      <trkpt lat="48.38571" lon="2.61592">
        <ele>168.431</ele>
        <time>2017-07-05T10:00:36Z</time>
      </trkpt>
      <trkpt lat="48.3858" lon="2.61579">
        <ele>168.424</ele>
        <time>2017-07-05T10:00:48Z</time>
      </trkpt>
      <trkpt lat="48.38601" lon="2.61571">
        <ele>168.395</ele>
        <time>2017-07-05T10:01:05Z</time>
      </trkpt>
      <trkpt lat="48.38611" lon="2.61562">
        <ele>168.389</ele>
        <time>2017-07-05T10:01:13Z</time>
      </trkpt>
      <trkpt lat="48.38622" lon="2.61555">
        <ele>168.374</ele>
        <time>2017-07-05T10:01:23Z</time>
      </trkpt>
      <trkpt lat="48.38636" lon="2.61543">
        <ele>168.337</ele>
        <time>2017-07-05T10:01:36Z</time>
      </trkpt>
      <trkpt lat="48.38653" lon="2.61531">
        <ele>168.296</ele>
        <time>2017-07-05T10:01:49Z</time>
      </trkpt>
      <trkpt lat="48.38663" lon="2.61521">
        <ele>168.278</ele>
        <time>2017-07-05T10:02:02Z</time>
      </trkpt>
      <trkpt lat="48.38671" lon="2.61511">
        <ele>168.229</ele>
        <time>2017-07-05T10:02:10Z</time>
      </trkpt>
      <trkpt lat="48.38673" lon="2.61487">
        <ele>167.914</ele>
        <time>2017-07-05T10:02:30Z</time>
      </trkpt>
      <trkpt lat="48.38671" lon="2.61459">
        <ele>167.806</ele>
        <time>2017-07-05T10:02:47Z</time>
      </trkpt>
      <trkpt lat="48.3867" lon="2.61427">
        <ele>167.808</ele>
        <time>2017-07-05T10:03:06Z</time>
      </trkpt>
      <trkpt lat="48.38667" lon="2.61405">
        <ele>167.83</ele>
        <time>2017-07-05T10:03:26Z</time>
      </trkpt>
      <trkpt lat="48.38664" lon="2.61388">
        <ele>167.847</ele>
        <time>2017-07-05T10:03:39Z</time>
      </trkpt>
      <trkpt lat="48.3866" lon="2.61354">
        <ele>167.978</ele>
        <time>2017-07-05T10:03:58Z</time>
      </trkpt>
      <trkpt lat="48.38655" lon="2.61322">
        <ele>168.069</ele>
        <time>2017-07-05T10:04:14Z</time>
      </trkpt>
      <trkpt lat="48.3865" lon="2.61303">
        <ele>168.135</ele>
        <time>2017-07-05T10:04:29Z</time>
      </trkpt>
      <trkpt lat="48.38651" lon="2.61282">
        <ele>168.191</ele>
        <time>2017-07-05T10:04:40Z</time>
      </trkpt>
      <trkpt lat="48.38648" lon="2.61248">
        <ele>168.233</ele>
        <time>2017-07-05T10:04:56Z</time>
      </trkpt>
      <trkpt lat="48.38643" lon="2.61219">
        <ele>168.268</ele>
        <time>2017-07-05T10:05:12Z</time>
      </trkpt>
      <trkpt lat="48.38639" lon="2.612">
        <ele>168.312</ele>
        <time>2017-07-05T10:05:24Z</time>
      </trkpt>
      <trkpt lat="48.38634" lon="2.61165">
        <ele>168.381</ele>
        <time>2017-07-05T10:05:42Z</time>
      </trkpt>
      <trkpt lat="48.38632" lon="2.61144">
        <ele>168.455</ele>
        <time>2017-07-05T10:05:54Z</time>
      </trkpt>
      <trkpt lat="48.38627" lon="2.61122">
        <ele>168.53</ele>
        <time>2017-07-05T10:06:11Z</time>
      </trkpt>
      <trkpt lat="48.38627" lon="2.61102">
        <ele>168.579</ele>
        <time>2017-07-05T10:06:23Z</time>
      </trkpt>
      <trkpt lat="48.38627" lon="2.61086">
        <ele>168.618</ele>
        <time>2017-07-05T10:06:32Z</time>
      </trkpt>
      <trkpt lat="48.38626" lon="2.61063">
        <ele>168.691</ele>
        <time>2017-07-05T10:06:47Z</time>
      </trkpt>
      <trkpt lat="48.38622" lon="2.61034">
        <ele>168.702</ele>
        <time>2017-07-05T10:07:03Z</time>
      </trkpt>
      <trkpt lat="48.38615" lon="2.61">
        <ele>168.745</ele>
        <time>2017-07-05T10:07:22Z</time>
      </trkpt>
      <trkpt lat="48.38615" lon="2.60986">
        <ele>168.773</ele>
        <time>2017-07-05T10:07:32Z</time>
      </trkpt>
      <trkpt lat="48.38615" lon="2.60986">
        <ele>125</ele>
        <time>2017-07-05T10:07:39Z</time>
      </trkpt>
      <trkpt lat="48.38615" lon="2.60986">
        <ele>125</ele>
        <time>2017-07-05T10:07:43Z</time>
      </trkpt>
      <trkpt lat="48.38614" lon="2.60972">
        <ele>168.821</ele>
        <time>2017-07-05T10:07:43Z</time>
      </trkpt>
      <trkpt lat="48.38611" lon="2.60954">
        <ele>168.862</ele>
        <time>2017-07-05T10:07:53Z</time>
      </trkpt>
      <trkpt lat="48.38606" lon="2.60927">
        <ele>168.858</ele>
        <time>2017-07-05T10:08:07Z</time>
      </trkpt>
      <trkpt lat="48.38604" lon="2.60899">
        <ele>168.833</ele>
        <time>2017-07-05T10:08:23Z</time>
      </trkpt>
      <trkpt lat="48.38603" lon="2.60883">
        <ele>168.827</ele>
        <time>2017-07-05T10:08:34Z</time>
      </trkpt>
      <trkpt lat="48.38599" lon="2.60856">
        <ele>168.834</ele>
        <time>2017-07-05T10:08:49Z</time>
      </trkpt>
      <trkpt lat="48.38596" lon="2.60837">
        <ele>168.876</ele>
        <time>2017-07-05T10:09:04Z</time>
      </trkpt>
      <trkpt lat="48.38589" lon="2.60799">
        <ele>168.981</ele>
        <time>2017-07-05T10:09:23Z</time>
      </trkpt>
      <trkpt lat="48.38586" lon="2.60771">
        <ele>169.012</ele>
        <time>2017-07-05T10:09:38Z</time>
      </trkpt>
      <trkpt lat="48.38587" lon="2.60742">
        <ele>169.044</ele>
        <time>2017-07-05T10:09:53Z</time>
      </trkpt>
      <trkpt lat="48.3859" lon="2.60714">
        <ele>169.043</ele>
        <time>2017-07-05T10:10:10Z</time>
      </trkpt>
      <trkpt lat="48.38591" lon="2.60689">
        <ele>169.04</ele>
        <time>2017-07-05T10:10:27Z</time>
      </trkpt>
      <trkpt lat="48.38591" lon="2.60652">
        <ele>169.034</ele>
        <time>2017-07-05T10:10:46Z</time>
      </trkpt>
      <trkpt lat="48.38595" lon="2.60617">
        <ele>169.204</ele>
        <time>2017-07-05T10:11:05Z</time>
      </trkpt>
      <trkpt lat="48.38597" lon="2.60588">
        <ele>169.583</ele>
        <time>2017-07-05T10:11:22Z</time>
      </trkpt>
      <trkpt lat="48.38598" lon="2.60569">
        <ele>169.827</ele>
        <time>2017-07-05T10:11:33Z</time>
      </trkpt>
      <trkpt lat="48.38599" lon="2.60555">
        <ele>169.98</ele>
        <time>2017-07-05T10:11:42Z</time>
      </trkpt>
      <trkpt lat="48.38598" lon="2.60523">
        <ele>170.161</ele>
        <time>2017-07-05T10:11:58Z</time>
      </trkpt>
      <trkpt lat="48.38598" lon="2.605">
        <ele>170.275</ele>
        <time>2017-07-05T10:12:12Z</time>
      </trkpt>
      <trkpt lat="48.38598" lon="2.60484">
        <ele>170.33</ele>
        <time>2017-07-05T10:12:22Z</time>
      </trkpt>
      <trkpt lat="48.38598" lon="2.60466">
        <ele>170.375</ele>
        <time>2017-07-05T10:12:33Z</time>
      </trkpt>
      <trkpt lat="48.38597" lon="2.60437">
        <ele>170.433</ele>
        <time>2017-07-05T10:12:50Z</time>
      </trkpt>
      <trkpt lat="48.38601" lon="2.60409">
        <ele>170.471</ele>
        <time>2017-07-05T10:13:06Z</time>
      </trkpt>
      <trkpt lat="48.38602" lon="2.60386">
        <ele>170.498</ele>
        <time>2017-07-05T10:13:18Z</time>
      </trkpt>
      <trkpt lat="48.38604" lon="2.60357">
        <ele>170.52</ele>
        <time>2017-07-05T10:13:36Z</time>
      </trkpt>
      <trkpt lat="48.38605" lon="2.60328">
        <ele>170.486</ele>
        <time>2017-07-05T10:13:53Z</time>
      </trkpt>
      <trkpt lat="48.38606" lon="2.60305">
        <ele>170.444</ele>
        <time>2017-07-05T10:14:04Z</time>
      </trkpt>
      <trkpt lat="48.38607" lon="2.60284">
        <ele>170.378</ele>
        <time>2017-07-05T10:14:17Z</time>
      </trkpt>
      <trkpt lat="48.38609" lon="2.60268">
        <ele>170.323</ele>
        <time>2017-07-05T10:14:27Z</time>
      </trkpt>
      <trkpt lat="48.38612" lon="2.60247">
        <ele>170.249</ele>
        <time>2017-07-05T10:14:39Z</time>
      </trkpt>
      <trkpt lat="48.38617" lon="2.60222">
        <ele>170.152</ele>
        <time>2017-07-05T10:14:52Z</time>
      </trkpt>
      <trkpt lat="48.38617" lon="2.60197">
        <ele>170.059</ele>
        <time>2017-07-05T10:15:05Z</time>
      </trkpt>
      <trkpt lat="48.38617" lon="2.60164">
        <ele>169.919</ele>
        <time>2017-07-05T10:15:24Z</time>
      </trkpt>
      <trkpt lat="48.38619" lon="2.60136">
        <ele>169.806</ele>
        <time>2017-07-05T10:15:37Z</time>
      </trkpt>
      <trkpt lat="48.38619" lon="2.60117">
        <ele>169.715</ele>
        <time>2017-07-05T10:15:48Z</time>
      </trkpt>
      <trkpt lat="48.38623" lon="2.60089">
        <ele>169.605</ele>
        <time>2017-07-05T10:16:03Z</time>
      </trkpt>
      <trkpt lat="48.38624" lon="2.60067">
        <ele>169.526</ele>
        <time>2017-07-05T10:16:16Z</time>
      </trkpt>
      <trkpt lat="48.38626" lon="2.6004">
        <ele>169.452</ele>
        <time>2017-07-05T10:16:31Z</time>
      </trkpt>
      <trkpt lat="48.38627" lon="2.60025">
        <ele>169.426</ele>
        <time>2017-07-05T10:16:40Z</time>
      </trkpt>
      <trkpt lat="48.38625" lon="2.59993">
        <ele>169.361</ele>
        <time>2017-07-05T10:16:58Z</time>
      </trkpt>
      <trkpt lat="48.38631" lon="2.59965">
        <ele>169.326</ele>
        <time>2017-07-05T10:17:14Z</time>
      </trkpt>
      <trkpt lat="48.38633" lon="2.59936">
        <ele>169.298</ele>
        <time>2017-07-05T10:17:33Z</time>
      </trkpt>
      <trkpt lat="48.38641" lon="2.59922">
        <ele>169.247</ele>
        <time>2017-07-05T10:17:50Z</time>
      </trkpt>
      <trkpt lat="48.3865" lon="2.59906">
        <ele>169.196</ele>
        <time>2017-07-05T10:18:01Z</time>
      </trkpt>
      <trkpt lat="48.38665" lon="2.59898">
        <ele>169.095</ele>
        <time>2017-07-05T10:18:18Z</time>
      </trkpt>
      <trkpt lat="48.38692" lon="2.59896">
        <ele>168.939</ele>
        <time>2017-07-05T10:18:37Z</time>
      </trkpt>
      <trkpt lat="48.38713" lon="2.599">
        <ele>168.853</ele>
        <time>2017-07-05T10:18:49Z</time>
      </trkpt>
      <trkpt lat="48.38726" lon="2.59908">
        <ele>168.75</ele>
        <time>2017-07-05T10:19:06Z</time>
      </trkpt>
      <trkpt lat="48.38739" lon="2.59905">
        <ele>168.679</ele>
        <time>2017-07-05T10:19:20Z</time>
      </trkpt>
      <trkpt lat="48.38754" lon="2.5988">
        <ele>168.584</ele>
        <time>2017-07-05T10:19:39Z</time>
      </trkpt>
      <trkpt lat="48.38765" lon="2.59859">
        <ele>168.497</ele>
        <time>2017-07-05T10:19:56Z</time>
      </trkpt>
      <trkpt lat="48.38774" lon="2.59844">
        <ele>168.421</ele>
        <time>2017-07-05T10:20:08Z</time>
      </trkpt>
      <trkpt lat="48.38781" lon="2.59829">
        <ele>168.35</ele>
        <time>2017-07-05T10:20:19Z</time>
      </trkpt>
      <trkpt lat="48.38797" lon="2.59809">
        <ele>168.257</ele>
        <time>2017-07-05T10:20:35Z</time>
      </trkpt>
      <trkpt lat="48.38815" lon="2.59804">
        <ele>168.152</ele>
        <time>2017-07-05T10:20:49Z</time>
      </trkpt>
      <trkpt lat="48.38823" lon="2.59805">
        <ele>168.084</ele>
        <time>2017-07-05T10:20:58Z</time>
      </trkpt>
      <trkpt lat="48.3885" lon="2.59798">
        <ele>167.977</ele>
        <time>2017-07-05T10:21:16Z</time>
      </trkpt>
      <trkpt lat="48.38871" lon="2.59787">
        <ele>167.909</ele>
        <time>2017-07-05T10:21:33Z</time>
      </trkpt>
      <trkpt lat="48.38882" lon="2.59783">
        <ele>167.873</ele>
        <time>2017-07-05T10:21:46Z</time>
      </trkpt>
      <trkpt lat="48.38891" lon="2.59781">
        <ele>167.824</ele>
        <time>2017-07-05T10:21:56Z</time>
      </trkpt>
      <trkpt lat="48.38891" lon="2.59781">
        <ele>122</ele>
        <time>2017-07-05T10:22:03Z</time>
      </trkpt>
      <trkpt lat="48.38891" lon="2.59781">
        <ele>122</ele>
        <time>2017-07-05T10:22:32Z</time>
      </trkpt>
      <trkpt lat="48.38898" lon="2.59794">
        <ele>167.72</ele>
        <time>2017-07-05T10:22:32Z</time>
      </trkpt>
      <trkpt lat="48.38902" lon="2.59804">
        <ele>167.666</ele>
        <time>2017-07-05T10:22:48Z</time>
      </trkpt>
      <trkpt lat="48.38902" lon="2.59804">
        <ele>167.666</ele>
        <time>2017-07-05T10:25:30Z</time>
      </trkpt>
      <trkpt lat="48.38929" lon="2.59798">
        <ele>168.731</ele>
        <time>2017-07-05T10:32:53Z</time>
      </trkpt>
      <trkpt lat="48.38929" lon="2.59798">
        <ele>168.731</ele>
        <time>2017-07-05T10:35:59Z</time>
      </trkpt>
      <trkpt lat="48.38906" lon="2.59802">
        <ele>161.197</ele>
        <time>2017-07-05T11:03:01Z</time>
      </trkpt>
      <trkpt lat="48.38906" lon="2.59802">
        <ele>161.197</ele>
        <time>2017-07-05T11:07:24Z</time>
      </trkpt>
      <trkpt lat="48.3891" lon="2.59769">
        <ele>160.964</ele>
        <time>2017-07-05T11:11:10Z</time>
      </trkpt>
      <trkpt lat="48.38917" lon="2.59754">
        <ele>160.984</ele>
        <time>2017-07-05T11:11:26Z</time>
      </trkpt>
      <trkpt lat="48.38917" lon="2.59754">
        <ele>160.984</ele>
        <time>2017-07-05T11:11:33Z</time>
      </trkpt>
      <trkpt lat="48.38917" lon="2.59754">
        <ele>122</ele>
        <time>2017-07-05T11:11:33Z</time>
      </trkpt>
      <trkpt lat="48.38917" lon="2.59754">
        <ele>122</ele>
        <time>2017-07-05T11:11:41Z</time>
      </trkpt>
      <trkpt lat="48.38921" lon="2.59737">
        <ele>161.027</ele>
        <time>2017-07-05T11:11:41Z</time>
      </trkpt>
      <trkpt lat="48.38924" lon="2.59702">
        <ele>161.143</ele>
        <time>2017-07-05T11:12:03Z</time>
      </trkpt>
      <trkpt lat="48.38925" lon="2.59672">
        <ele>161.273</ele>
        <time>2017-07-05T11:12:23Z</time>
      </trkpt>
      <trkpt lat="48.38916" lon="2.5965">
        <ele>161.402</ele>
        <time>2017-07-05T11:12:38Z</time>
      </trkpt>
      <trkpt lat="48.38904" lon="2.59624">
        <ele>161.513</ele>
        <time>2017-07-05T11:12:53Z</time>
      </trkpt>
      <trkpt lat="48.38901" lon="2.59592">
        <ele>161.626</ele>
        <time>2017-07-05T11:13:10Z</time>
      </trkpt>
      <trkpt lat="48.38904" lon="2.59567">
        <ele>161.685</ele>
        <time>2017-07-05T11:13:22Z</time>
      </trkpt>
      <trkpt lat="48.38905" lon="2.5955">
        <ele>161.745</ele>
        <time>2017-07-05T11:13:33Z</time>
      </trkpt>
      <trkpt lat="48.3891" lon="2.59526">
        <ele>161.843</ele>
        <time>2017-07-05T11:13:51Z</time>
      </trkpt>
      <trkpt lat="48.38923" lon="2.59503">
        <ele>161.949</ele>
        <time>2017-07-05T11:14:08Z</time>
      </trkpt>
      <trkpt lat="48.38937" lon="2.59483">
        <ele>162.057</ele>
        <time>2017-07-05T11:14:27Z</time>
      </trkpt>
      <trkpt lat="48.38937" lon="2.59483">
        <ele>162.057</ele>
        <time>2017-07-05T11:14:34Z</time>
      </trkpt>
      <trkpt lat="48.38937" lon="2.59483">
        <ele>119</ele>
        <time>2017-07-05T11:14:34Z</time>
      </trkpt>
      <trkpt lat="48.38937" lon="2.59483">
        <ele>119</ele>
        <time>2017-07-05T11:14:51Z</time>
      </trkpt>
      <trkpt lat="48.38923" lon="2.59473">
        <ele>162.166</ele>
        <time>2017-07-05T11:14:51Z</time>
      </trkpt>
      <trkpt lat="48.38909" lon="2.59463">
        <ele>162.26</ele>
        <time>2017-07-05T11:15:08Z</time>
      </trkpt>
      <trkpt lat="48.38901" lon="2.59449">
        <ele>162.328</ele>
        <time>2017-07-05T11:15:21Z</time>
      </trkpt>
      <trkpt lat="48.38901" lon="2.59449">
        <ele>162.328</ele>
        <time>2017-07-05T11:15:28Z</time>
      </trkpt>
      <trkpt lat="48.38901" lon="2.59449">
        <ele>120.6</ele>
        <time>2017-07-05T11:15:28Z</time>
      </trkpt>
      <trkpt lat="48.38901" lon="2.59449">
        <ele>120.6</ele>
        <time>2017-07-05T11:15:41Z</time>
      </trkpt>
      <trkpt lat="48.389" lon="2.59425">
        <ele>162.446</ele>
        <time>2017-07-05T11:15:41Z</time>
      </trkpt>
      <trkpt lat="48.38902" lon="2.59403">
        <ele>162.561</ele>
        <time>2017-07-05T11:15:58Z</time>
      </trkpt>
      <trkpt lat="48.38906" lon="2.59386">
        <ele>162.628</ele>
        <time>2017-07-05T11:16:08Z</time>
      </trkpt>
      <trkpt lat="48.38906" lon="2.59386">
        <ele>162.628</ele>
        <time>2017-07-05T11:16:15Z</time>
      </trkpt>
      <trkpt lat="48.38906" lon="2.59386">
        <ele>121.8</ele>
        <time>2017-07-05T11:16:15Z</time>
      </trkpt>
      <trkpt lat="48.38906" lon="2.59386">
        <ele>121.8</ele>
        <time>2017-07-05T11:16:31Z</time>
      </trkpt>
      <trkpt lat="48.38909" lon="2.5936">
        <ele>162.764</ele>
        <time>2017-07-05T11:16:31Z</time>
      </trkpt>
      <trkpt lat="48.38915" lon="2.59328">
        <ele>162.879</ele>
        <time>2017-07-05T11:16:49Z</time>
      </trkpt>
      <trkpt lat="48.38923" lon="2.59303">
        <ele>162.964</ele>
        <time>2017-07-05T11:17:08Z</time>
      </trkpt>
      <trkpt lat="48.38928" lon="2.5928">
        <ele>163.056</ele>
        <time>2017-07-05T11:17:24Z</time>
      </trkpt>
      <trkpt lat="48.38937" lon="2.59258">
        <ele>163.158</ele>
        <time>2017-07-05T11:17:40Z</time>
      </trkpt>
      <trkpt lat="48.3894" lon="2.59234">
        <ele>163.276</ele>
        <time>2017-07-05T11:17:59Z</time>
      </trkpt>
      <trkpt lat="48.38939" lon="2.59206">
        <ele>163.37</ele>
        <time>2017-07-05T11:18:20Z</time>
      </trkpt>
      <trkpt lat="48.38944" lon="2.59175">
        <ele>163.426</ele>
        <time>2017-07-05T11:18:40Z</time>
      </trkpt>
      <trkpt lat="48.38939" lon="2.5915">
        <ele>163.464</ele>
        <time>2017-07-05T11:18:56Z</time>
      </trkpt>
      <trkpt lat="48.38938" lon="2.5913">
        <ele>163.471</ele>
        <time>2017-07-05T11:19:09Z</time>
      </trkpt>
      <trkpt lat="48.38939" lon="2.59117">
        <ele>163.462</ele>
        <time>2017-07-05T11:19:19Z</time>
      </trkpt>
      <trkpt lat="48.38938" lon="2.59088">
        <ele>163.467</ele>
        <time>2017-07-05T11:19:37Z</time>
      </trkpt>
      <trkpt lat="48.38938" lon="2.59053">
        <ele>163.495</ele>
        <time>2017-07-05T11:19:56Z</time>
      </trkpt>
      <trkpt lat="48.38944" lon="2.5903">
        <ele>163.513</ele>
        <time>2017-07-05T11:20:13Z</time>
      </trkpt>
      <trkpt lat="48.38943" lon="2.5901">
        <ele>163.536</ele>
        <time>2017-07-05T11:20:25Z</time>
      </trkpt>
      <trkpt lat="48.38937" lon="2.58999">
        <ele>163.536</ele>
        <time>2017-07-05T11:20:35Z</time>
      </trkpt>
      <trkpt lat="48.38938" lon="2.58979">
        <ele>163.487</ele>
        <time>2017-07-05T11:20:53Z</time>
      </trkpt>
      <trkpt lat="48.38941" lon="2.58964">
        <ele>163.466</ele>
        <time>2017-07-05T11:21:04Z</time>
      </trkpt>
      <trkpt lat="48.38942" lon="2.58944">
        <ele>163.469</ele>
        <time>2017-07-05T11:21:15Z</time>
      </trkpt>
      <trkpt lat="48.38939" lon="2.58923">
        <ele>163.478</ele>
        <time>2017-07-05T11:21:33Z</time>
      </trkpt>
      <trkpt lat="48.38937" lon="2.58903">
        <ele>163.488</ele>
        <time>2017-07-05T11:21:44Z</time>
      </trkpt>
      <trkpt lat="48.38937" lon="2.58877">
        <ele>163.507</ele>
        <time>2017-07-05T11:21:58Z</time>
      </trkpt>
      <trkpt lat="48.38939" lon="2.58855">
        <ele>163.513</ele>
        <time>2017-07-05T11:22:10Z</time>
      </trkpt>
      <trkpt lat="48.38934" lon="2.58831">
        <ele>163.512</ele>
        <time>2017-07-05T11:22:24Z</time>
      </trkpt>
      <trkpt lat="48.38929" lon="2.5881">
        <ele>163.518</ele>
        <time>2017-07-05T11:22:38Z</time>
      </trkpt>
      <trkpt lat="48.38934" lon="2.58789">
        <ele>163.536</ele>
        <time>2017-07-05T11:22:50Z</time>
      </trkpt>
      <trkpt lat="48.38937" lon="2.58767">
        <ele>163.55</ele>
        <time>2017-07-05T11:23:00Z</time>
      </trkpt>
      <trkpt lat="48.38941" lon="2.58752">
        <ele>163.575</ele>
        <time>2017-07-05T11:23:11Z</time>
      </trkpt>
      <trkpt lat="48.38951" lon="2.58721">
        <ele>163.661</ele>
        <time>2017-07-05T11:23:30Z</time>
      </trkpt>
      <trkpt lat="48.38951" lon="2.58707">
        <ele>163.709</ele>
        <time>2017-07-05T11:23:40Z</time>
      </trkpt>
      <trkpt lat="48.38953" lon="2.58673">
        <ele>163.799</ele>
        <time>2017-07-05T11:23:59Z</time>
      </trkpt>
      <trkpt lat="48.38958" lon="2.58651">
        <ele>163.859</ele>
        <time>2017-07-05T11:24:11Z</time>
      </trkpt>
      <trkpt lat="48.38961" lon="2.58632">
        <ele>163.941</ele>
        <time>2017-07-05T11:24:25Z</time>
      </trkpt>
      <trkpt lat="48.38965" lon="2.58608">
        <ele>163.999</ele>
        <time>2017-07-05T11:24:40Z</time>
      </trkpt>
      <trkpt lat="48.38973" lon="2.58592">
        <ele>164.044</ele>
        <time>2017-07-05T11:24:51Z</time>
      </trkpt>
      <trkpt lat="48.38978" lon="2.58575">
        <ele>164.067</ele>
        <time>2017-07-05T11:25:03Z</time>
      </trkpt>
      <trkpt lat="48.38978" lon="2.58575">
        <ele>124.5</ele>
        <time>2017-07-05T11:25:11Z</time>
      </trkpt>
      <trkpt lat="48.38978" lon="2.58575">
        <ele>124.5</ele>
        <time>2017-07-05T11:25:16Z</time>
      </trkpt>
      <trkpt lat="48.38983" lon="2.58562">
        <ele>164.088</ele>
        <time>2017-07-05T11:25:16Z</time>
      </trkpt>
      <trkpt lat="48.38986" lon="2.58545">
        <ele>164.126</ele>
        <time>2017-07-05T11:25:30Z</time>
      </trkpt>
      <trkpt lat="48.38988" lon="2.58522">
        <ele>164.145</ele>
        <time>2017-07-05T11:25:43Z</time>
      </trkpt>
      <trkpt lat="48.38992" lon="2.58504">
        <ele>164.169</ele>
        <time>2017-07-05T11:25:56Z</time>
      </trkpt>
      <trkpt lat="48.39006" lon="2.5848">
        <ele>164.206</ele>
        <time>2017-07-05T11:26:14Z</time>
      </trkpt>
      <trkpt lat="48.39014" lon="2.58464">
        <ele>164.235</ele>
        <time>2017-07-05T11:26:27Z</time>
      </trkpt>
      <trkpt lat="48.39017" lon="2.58435">
        <ele>164.284</ele>
        <time>2017-07-05T11:26:43Z</time>
      </trkpt>
      <trkpt lat="48.3902" lon="2.58415">
        <ele>164.337</ele>
        <time>2017-07-05T11:26:57Z</time>
      </trkpt>
      <trkpt lat="48.39026" lon="2.58398">
        <ele>164.384</ele>
        <time>2017-07-05T11:27:11Z</time>
      </trkpt>
      <trkpt lat="48.39026" lon="2.58372">
        <ele>164.429</ele>
        <time>2017-07-05T11:27:31Z</time>
      </trkpt>
      <trkpt lat="48.39022" lon="2.58346">
        <ele>164.444</ele>
        <time>2017-07-05T11:27:48Z</time>
      </trkpt>
      <trkpt lat="48.39025" lon="2.58318">
        <ele>164.451</ele>
        <time>2017-07-05T11:28:07Z</time>
      </trkpt>
      <trkpt lat="48.39027" lon="2.58291">
        <ele>164.448</ele>
        <time>2017-07-05T11:28:24Z</time>
      </trkpt>
      <trkpt lat="48.39018" lon="2.58273">
        <ele>164.462</ele>
        <time>2017-07-05T11:28:38Z</time>
      </trkpt>
      <trkpt lat="48.39011" lon="2.58259">
        <ele>164.483</ele>
        <time>2017-07-05T11:28:54Z</time>
      </trkpt>
      <trkpt lat="48.39" lon="2.58247">
        <ele>164.502</ele>
        <time>2017-07-05T11:29:08Z</time>
      </trkpt>
      <trkpt lat="48.38998" lon="2.58233">
        <ele>164.511</ele>
        <time>2017-07-05T11:29:23Z</time>
      </trkpt>
      <trkpt lat="48.39003" lon="2.58214">
        <ele>164.504</ele>
        <time>2017-07-05T11:29:31Z</time>
      </trkpt>
      <trkpt lat="48.3901" lon="2.58194">
        <ele>164.498</ele>
        <time>2017-07-05T11:29:44Z</time>
      </trkpt>
      <trkpt lat="48.39019" lon="2.58162">
        <ele>164.52</ele>
        <time>2017-07-05T11:30:03Z</time>
      </trkpt>
      <trkpt lat="48.3903" lon="2.58143">
        <ele>164.558</ele>
        <time>2017-07-05T11:30:21Z</time>
      </trkpt>
      <trkpt lat="48.39037" lon="2.58124">
        <ele>164.59</ele>
        <time>2017-07-05T11:30:39Z</time>
      </trkpt>
      <trkpt lat="48.39041" lon="2.58107">
        <ele>164.618</ele>
        <time>2017-07-05T11:30:51Z</time>
      </trkpt>
      <trkpt lat="48.3904" lon="2.58091">
        <ele>164.631</ele>
        <time>2017-07-05T11:31:03Z</time>
      </trkpt>
      <trkpt lat="48.39041" lon="2.58066">
        <ele>164.658</ele>
        <time>2017-07-05T11:31:20Z</time>
      </trkpt>
      <trkpt lat="48.3905" lon="2.58058">
        <ele>164.679</ele>
        <time>2017-07-05T11:31:31Z</time>
      </trkpt>
      <trkpt lat="48.3905" lon="2.58058">
        <ele>164.679</ele>
        <time>2017-07-05T11:31:38Z</time>
      </trkpt>
      <trkpt lat="48.3905" lon="2.58058">
        <ele>122.8</ele>
        <time>2017-07-05T11:31:38Z</time>
      </trkpt>
      <trkpt lat="48.3905" lon="2.58058">
        <ele>122.8</ele>
        <time>2017-07-05T11:34:59Z</time>
      </trkpt>
      <trkpt lat="48.3907" lon="2.58067">
        <ele>164.871</ele>
        <time>2017-07-05T11:34:59Z</time>
      </trkpt>
      <trkpt lat="48.39092" lon="2.58043">
        <ele>164.78</ele>
        <time>2017-07-05T11:35:47Z</time>
      </trkpt>
      <trkpt lat="48.39118" lon="2.58071">
        <ele>164.189</ele>
        <time>2017-07-05T11:36:58Z</time>
      </trkpt>
      <trkpt lat="48.39126" lon="2.58084">
        <ele>164.075</ele>
        <time>2017-07-05T11:37:16Z</time>
      </trkpt>
      <trkpt lat="48.39152" lon="2.58112">
        <ele>163.608</ele>
        <time>2017-07-05T11:38:20Z</time>
      </trkpt>
      <trkpt lat="48.39156" lon="2.58123">
        <ele>163.53</ele>
        <time>2017-07-05T11:38:31Z</time>
      </trkpt>
      <trkpt lat="48.39156" lon="2.58123">
        <ele>91.2</ele>
        <time>2017-07-05T11:38:39Z</time>
      </trkpt>
      <trkpt lat="48.39156" lon="2.58123">
        <ele>91.2</ele>
        <time>2017-07-05T11:43:48Z</time>
      </trkpt>
      <trkpt lat="48.39182" lon="2.58141">
        <ele>158.337</ele>
        <time>2017-07-05T11:43:48Z</time>
      </trkpt>
      <trkpt lat="48.39182" lon="2.58141">
        <ele>158.337</ele>
        <time>2017-07-05T11:43:56Z</time>
      </trkpt>
      <trkpt lat="48.39182" lon="2.58141">
        <ele>85.3</ele>
        <time>2017-07-05T11:43:56Z</time>
      </trkpt>
      <trkpt lat="48.39182" lon="2.58141">
        <ele>85.3</ele>
        <time>2017-07-05T11:44:12Z</time>
      </trkpt>
      <trkpt lat="48.39176" lon="2.58162">
        <ele>157.695</ele>
        <time>2017-07-05T11:44:12Z</time>
      </trkpt>
      <trkpt lat="48.39146" lon="2.58169">
        <ele>156.404</ele>
        <time>2017-07-05T11:45:10Z</time>
      </trkpt>
      <trkpt lat="48.39144" lon="2.58182">
        <ele>156.129</ele>
        <time>2017-07-05T11:45:24Z</time>
      </trkpt>
      <trkpt lat="48.3914" lon="2.58224">
        <ele>155.264</ele>
        <time>2017-07-05T11:46:10Z</time>
      </trkpt>
      <trkpt lat="48.39139" lon="2.58228">
        <ele>155.195</ele>
        <time>2017-07-05T11:46:13Z</time>
      </trkpt>
      <trkpt lat="48.39139" lon="2.58228">
        <ele>92.7</ele>
        <time>2017-07-05T11:46:18Z</time>
      </trkpt>
      <trkpt lat="48.39139" lon="2.58228">
        <ele>92.7</ele>
        <time>2017-07-05T11:46:22Z</time>
      </trkpt>
      <trkpt lat="48.39133" lon="2.58242">
        <ele>154.963</ele>
        <time>2017-07-05T11:46:22Z</time>
      </trkpt>
      <trkpt lat="48.39129" lon="2.58262">
        <ele>154.423</ele>
        <time>2017-07-05T11:46:35Z</time>
      </trkpt>
      <trkpt lat="48.39122" lon="2.58282">
        <ele>153.539</ele>
        <time>2017-07-05T11:46:50Z</time>
      </trkpt>
      <trkpt lat="48.39112" lon="2.58308">
        <ele>152.275</ele>
        <time>2017-07-05T11:47:11Z</time>
      </trkpt>
      <trkpt lat="48.39117" lon="2.5833">
        <ele>151.698</ele>
        <time>2017-07-05T11:47:24Z</time>
      </trkpt>
      <trkpt lat="48.3912" lon="2.58343">
        <ele>151.231</ele>
        <time>2017-07-05T11:47:38Z</time>
      </trkpt>
      <trkpt lat="48.3912" lon="2.58343">
        <ele>93.4</ele>
        <time>2017-07-05T11:47:46Z</time>
      </trkpt>
      <trkpt lat="48.3912" lon="2.58343">
        <ele>93.4</ele>
        <time>2017-07-05T11:48:29Z</time>
      </trkpt>
      <trkpt lat="48.39127" lon="2.58386">
        <ele>149.896</ele>
        <time>2017-07-05T11:48:29Z</time>
      </trkpt>
      <trkpt lat="48.39124" lon="2.58407">
        <ele>149.626</ele>
        <time>2017-07-05T11:48:45Z</time>
      </trkpt>
      <trkpt lat="48.3912" lon="2.58425">
        <ele>149.394</ele>
        <time>2017-07-05T11:49:02Z</time>
      </trkpt>
      <trkpt lat="48.3912" lon="2.58446">
        <ele>149.247</ele>
        <time>2017-07-05T11:49:14Z</time>
      </trkpt>
      <trkpt lat="48.39118" lon="2.58475">
        <ele>149.046</ele>
        <time>2017-07-05T11:49:32Z</time>
      </trkpt>
      <trkpt lat="48.39122" lon="2.58485">
        <ele>148.932</ele>
        <time>2017-07-05T11:49:42Z</time>
      </trkpt>
      <trkpt lat="48.39122" lon="2.58485">
        <ele>92.3</ele>
        <time>2017-07-05T11:49:49Z</time>
      </trkpt>
      <trkpt lat="48.39122" lon="2.58485">
        <ele>92.3</ele>
        <time>2017-07-05T11:49:55Z</time>
      </trkpt>
      <trkpt lat="48.3912" lon="2.58498">
        <ele>148.773</ele>
        <time>2017-07-05T11:49:55Z</time>
      </trkpt>
      <trkpt lat="48.39129" lon="2.58522">
        <ele>148.428</ele>
        <time>2017-07-05T11:50:14Z</time>
      </trkpt>
      <trkpt lat="48.39141" lon="2.58544">
        <ele>148</ele>
        <time>2017-07-05T11:50:32Z</time>
      </trkpt>
      <trkpt lat="48.39149" lon="2.58558">
        <ele>147.69</ele>
        <time>2017-07-05T11:50:48Z</time>
      </trkpt>
      <trkpt lat="48.39149" lon="2.58558">
        <ele>88.7</ele>
        <time>2017-07-05T11:50:55Z</time>
      </trkpt>
      <trkpt lat="48.39149" lon="2.58558">
        <ele>88.7</ele>
        <time>2017-07-05T11:51:05Z</time>
      </trkpt>
      <trkpt lat="48.39153" lon="2.5857">
        <ele>147.249</ele>
        <time>2017-07-05T11:51:05Z</time>
      </trkpt>
      <trkpt lat="48.39173" lon="2.58603">
        <ele>146.049</ele>
        <time>2017-07-05T11:52:22Z</time>
      </trkpt>
      <trkpt lat="48.3919" lon="2.58605">
        <ele>145.874</ele>
        <time>2017-07-05T11:52:39Z</time>
      </trkpt>
      <trkpt lat="48.39206" lon="2.58612">
        <ele>145.771</ele>
        <time>2017-07-05T11:52:53Z</time>
      </trkpt>
      <trkpt lat="48.39218" lon="2.58616">
        <ele>145.723</ele>
        <time>2017-07-05T11:53:06Z</time>
      </trkpt>
      <trkpt lat="48.39228" lon="2.58618">
        <ele>145.707</ele>
        <time>2017-07-05T11:53:14Z</time>
      </trkpt>
      <trkpt lat="48.39242" lon="2.58633">
        <ele>145.686</ele>
        <time>2017-07-05T11:53:28Z</time>
      </trkpt>
      <trkpt lat="48.39253" lon="2.58637">
        <ele>145.669</ele>
        <time>2017-07-05T11:53:38Z</time>
      </trkpt>
      <trkpt lat="48.39271" lon="2.58644">
        <ele>145.675</ele>
        <time>2017-07-05T11:53:50Z</time>
      </trkpt>
      <trkpt lat="48.39283" lon="2.58647">
        <ele>145.677</ele>
        <time>2017-07-05T11:53:58Z</time>
      </trkpt>
      <trkpt lat="48.39299" lon="2.58658">
        <ele>145.654</ele>
        <time>2017-07-05T11:54:14Z</time>
      </trkpt>
      <trkpt lat="48.39317" lon="2.58678">
        <ele>145.627</ele>
        <time>2017-07-05T11:54:31Z</time>
      </trkpt>
      <trkpt lat="48.3933" lon="2.58703">
        <ele>145.601</ele>
        <time>2017-07-05T11:54:46Z</time>
      </trkpt>
      <trkpt lat="48.39343" lon="2.58717">
        <ele>145.584</ele>
        <time>2017-07-05T11:55:00Z</time>
      </trkpt>
      <trkpt lat="48.39353" lon="2.58732">
        <ele>145.583</ele>
        <time>2017-07-05T11:55:14Z</time>
      </trkpt>
      <trkpt lat="48.39359" lon="2.58739">
        <ele>145.588</ele>
        <time>2017-07-05T11:55:21Z</time>
      </trkpt>
      <trkpt lat="48.39374" lon="2.5876">
        <ele>145.598</ele>
        <time>2017-07-05T11:55:38Z</time>
      </trkpt>
      <trkpt lat="48.39386" lon="2.58783">
        <ele>145.607</ele>
        <time>2017-07-05T11:55:53Z</time>
      </trkpt>
      <trkpt lat="48.39398" lon="2.58804">
        <ele>145.616</ele>
        <time>2017-07-05T11:56:08Z</time>
      </trkpt>
      <trkpt lat="48.39407" lon="2.58825">
        <ele>145.638</ele>
        <time>2017-07-05T11:56:21Z</time>
      </trkpt>
      <trkpt lat="48.39409" lon="2.58847">
        <ele>145.62</ele>
        <time>2017-07-05T11:56:35Z</time>
      </trkpt>
      <trkpt lat="48.39412" lon="2.58881">
        <ele>145.556</ele>
        <time>2017-07-05T11:56:54Z</time>
      </trkpt>
      <trkpt lat="48.3941" lon="2.58909">
        <ele>145.511</ele>
        <time>2017-07-05T11:57:06Z</time>
      </trkpt>
      <trkpt lat="48.39408" lon="2.58938">
        <ele>145.435</ele>
        <time>2017-07-05T11:57:22Z</time>
      </trkpt>
      <trkpt lat="48.39407" lon="2.58951">
        <ele>145.404</ele>
        <time>2017-07-05T11:57:29Z</time>
      </trkpt>
      <trkpt lat="48.39397" lon="2.58984">
        <ele>145.325</ele>
        <time>2017-07-05T11:57:49Z</time>
      </trkpt>
      <trkpt lat="48.39389" lon="2.5901">
        <ele>145.259</ele>
        <time>2017-07-05T11:58:06Z</time>
      </trkpt>
      <trkpt lat="48.39383" lon="2.5903">
        <ele>145.187</ele>
        <time>2017-07-05T11:58:19Z</time>
      </trkpt>
      <trkpt lat="48.39379" lon="2.5905">
        <ele>145.103</ele>
        <time>2017-07-05T11:58:31Z</time>
      </trkpt>
      <trkpt lat="48.39375" lon="2.59073">
        <ele>145.025</ele>
        <time>2017-07-05T11:58:43Z</time>
      </trkpt>
      <trkpt lat="48.39366" lon="2.59103">
        <ele>144.919</ele>
        <time>2017-07-05T11:58:59Z</time>
      </trkpt>
      <trkpt lat="48.39365" lon="2.59117">
        <ele>144.859</ele>
        <time>2017-07-05T11:59:09Z</time>
      </trkpt>
      <trkpt lat="48.39362" lon="2.59157">
        <ele>144.711</ele>
        <time>2017-07-05T11:59:29Z</time>
      </trkpt>
      <trkpt lat="48.39366" lon="2.59182">
        <ele>144.634</ele>
        <time>2017-07-05T11:59:43Z</time>
      </trkpt>
      <trkpt lat="48.39368" lon="2.59196">
        <ele>144.605</ele>
        <time>2017-07-05T11:59:52Z</time>
      </trkpt>
      <trkpt lat="48.3937" lon="2.59228">
        <ele>144.53</ele>
        <time>2017-07-05T12:00:07Z</time>
      </trkpt>
      <trkpt lat="48.39372" lon="2.59242">
        <ele>144.47</ele>
        <time>2017-07-05T12:00:15Z</time>
      </trkpt>
      <trkpt lat="48.39375" lon="2.59273">
        <ele>144.388</ele>
        <time>2017-07-05T12:00:32Z</time>
      </trkpt>
      <trkpt lat="48.39376" lon="2.59294">
        <ele>144.283</ele>
        <time>2017-07-05T12:00:44Z</time>
      </trkpt>
      <trkpt lat="48.39377" lon="2.59316">
        <ele>144.191</ele>
        <time>2017-07-05T12:00:56Z</time>
      </trkpt>
      <trkpt lat="48.39381" lon="2.59346">
        <ele>144.086</ele>
        <time>2017-07-05T12:01:12Z</time>
      </trkpt>
      <trkpt lat="48.39383" lon="2.59367">
        <ele>144.008</ele>
        <time>2017-07-05T12:01:24Z</time>
      </trkpt>
      <trkpt lat="48.39381" lon="2.59399">
        <ele>143.897</ele>
        <time>2017-07-05T12:01:41Z</time>
      </trkpt>
      <trkpt lat="48.39386" lon="2.59429">
        <ele>143.815</ele>
        <time>2017-07-05T12:01:57Z</time>
      </trkpt>
      <trkpt lat="48.39387" lon="2.59452">
        <ele>143.782</ele>
        <time>2017-07-05T12:02:09Z</time>
      </trkpt>
      <trkpt lat="48.39387" lon="2.59475">
        <ele>143.775</ele>
        <time>2017-07-05T12:02:21Z</time>
      </trkpt>
      <trkpt lat="48.3939" lon="2.59495">
        <ele>143.797</ele>
        <time>2017-07-05T12:02:34Z</time>
      </trkpt>
      <trkpt lat="48.39375" lon="2.59507">
        <ele>143.828</ele>
        <time>2017-07-05T12:02:55Z</time>
      </trkpt>
      <trkpt lat="48.39377" lon="2.59537">
        <ele>143.824</ele>
        <time>2017-07-05T12:03:14Z</time>
      </trkpt>
      <trkpt lat="48.39385" lon="2.59546">
        <ele>143.809</ele>
        <time>2017-07-05T12:03:23Z</time>
      </trkpt>
      <trkpt lat="48.394" lon="2.59572">
        <ele>143.788</ele>
        <time>2017-07-05T12:03:39Z</time>
      </trkpt>
      <trkpt lat="48.39402" lon="2.596">
        <ele>143.764</ele>
        <time>2017-07-05T12:03:51Z</time>
      </trkpt>
      <trkpt lat="48.39402" lon="2.59629">
        <ele>143.723</ele>
        <time>2017-07-05T12:04:04Z</time>
      </trkpt>
      <trkpt lat="48.39402" lon="2.59656">
        <ele>143.684</ele>
        <time>2017-07-05T12:04:18Z</time>
      </trkpt>
      <trkpt lat="48.39405" lon="2.59689">
        <ele>143.644</ele>
        <time>2017-07-05T12:04:35Z</time>
      </trkpt>
      <trkpt lat="48.39405" lon="2.59717">
        <ele>143.614</ele>
        <time>2017-07-05T12:04:51Z</time>
      </trkpt>
      <trkpt lat="48.39407" lon="2.59752">
        <ele>143.567</ele>
        <time>2017-07-05T12:05:08Z</time>
      </trkpt>
      <trkpt lat="48.39407" lon="2.5978">
        <ele>143.514</ele>
        <time>2017-07-05T12:05:23Z</time>
      </trkpt>
      <trkpt lat="48.39409" lon="2.598">
        <ele>143.451</ele>
        <time>2017-07-05T12:05:34Z</time>
      </trkpt>
      <trkpt lat="48.39409" lon="2.59833">
        <ele>143.388</ele>
        <time>2017-07-05T12:05:51Z</time>
      </trkpt>
      <trkpt lat="48.3941" lon="2.59856">
        <ele>143.382</ele>
        <time>2017-07-05T12:06:04Z</time>
      </trkpt>
      <trkpt lat="48.39411" lon="2.59878">
        <ele>143.355</ele>
        <time>2017-07-05T12:06:16Z</time>
      </trkpt>
      <trkpt lat="48.39406" lon="2.59901">
        <ele>143.308</ele>
        <time>2017-07-05T12:06:33Z</time>
      </trkpt>
      <trkpt lat="48.39406" lon="2.59901">
        <ele>143.308</ele>
        <time>2017-07-05T12:10:36Z</time>
      </trkpt>
      <trkpt lat="48.39417" lon="2.59939">
        <ele>140.208</ele>
        <time>2017-07-05T12:14:59Z</time>
      </trkpt>
      <trkpt lat="48.39421" lon="2.5996">
        <ele>140.142</ele>
        <time>2017-07-05T12:15:14Z</time>
      </trkpt>
      <trkpt lat="48.39421" lon="2.59991">
        <ele>140.096</ele>
        <time>2017-07-05T12:15:30Z</time>
      </trkpt>
      <trkpt lat="48.39419" lon="2.60016">
        <ele>140.013</ele>
        <time>2017-07-05T12:15:46Z</time>
      </trkpt>
      <trkpt lat="48.39417" lon="2.60052">
        <ele>139.912</ele>
        <time>2017-07-05T12:16:04Z</time>
      </trkpt>
      <trkpt lat="48.39416" lon="2.60072">
        <ele>139.867</ele>
        <time>2017-07-05T12:16:15Z</time>
      </trkpt>
      <trkpt lat="48.39414" lon="2.60105">
        <ele>139.78</ele>
        <time>2017-07-05T12:16:33Z</time>
      </trkpt>
      <trkpt lat="48.39411" lon="2.60134">
        <ele>139.716</ele>
        <time>2017-07-05T12:16:47Z</time>
      </trkpt>
      <trkpt lat="48.39407" lon="2.60158">
        <ele>139.662</ele>
        <time>2017-07-05T12:16:58Z</time>
      </trkpt>
      <trkpt lat="48.39398" lon="2.60182">
        <ele>139.604</ele>
        <time>2017-07-05T12:17:16Z</time>
      </trkpt>
      <trkpt lat="48.39375" lon="2.60212">
        <ele>139.514</ele>
        <time>2017-07-05T12:17:53Z</time>
      </trkpt>
      <trkpt lat="48.39356" lon="2.60241">
        <ele>139.493</ele>
        <time>2017-07-05T12:18:12Z</time>
      </trkpt>
      <trkpt lat="48.39344" lon="2.60261">
        <ele>139.474</ele>
        <time>2017-07-05T12:18:29Z</time>
      </trkpt>
      <trkpt lat="48.39333" lon="2.60276">
        <ele>139.452</ele>
        <time>2017-07-05T12:18:45Z</time>
      </trkpt>
      <trkpt lat="48.39326" lon="2.60288">
        <ele>139.44</ele>
        <time>2017-07-05T12:18:56Z</time>
      </trkpt>
      <trkpt lat="48.39307" lon="2.60313">
        <ele>139.409</ele>
        <time>2017-07-05T12:19:14Z</time>
      </trkpt>
      <trkpt lat="48.39292" lon="2.6033">
        <ele>139.392</ele>
        <time>2017-07-05T12:19:29Z</time>
      </trkpt>
      <trkpt lat="48.39277" lon="2.60353">
        <ele>139.375</ele>
        <time>2017-07-05T12:19:48Z</time>
      </trkpt>
      <trkpt lat="48.39267" lon="2.60372">
        <ele>139.371</ele>
        <time>2017-07-05T12:20:02Z</time>
      </trkpt>
      <trkpt lat="48.39258" lon="2.60386">
        <ele>139.372</ele>
        <time>2017-07-05T12:20:12Z</time>
      </trkpt>
      <trkpt lat="48.39242" lon="2.60403">
        <ele>139.384</ele>
        <time>2017-07-05T12:20:29Z</time>
      </trkpt>
      <trkpt lat="48.39239" lon="2.60406">
        <ele>139.386</ele>
        <time>2017-07-05T12:20:31Z</time>
      </trkpt>
      <trkpt lat="48.39239" lon="2.60406">
        <ele>101.9</ele>
        <time>2017-07-05T12:20:39Z</time>
      </trkpt>
      <trkpt lat="48.39239" lon="2.60406">
        <ele>101.9</ele>
        <time>2017-07-05T12:20:45Z</time>
      </trkpt>
      <trkpt lat="48.39233" lon="2.60415">
        <ele>139.415</ele>
        <time>2017-07-05T12:20:45Z</time>
      </trkpt>
      <trkpt lat="48.39216" lon="2.60447">
        <ele>139.461</ele>
        <time>2017-07-05T12:21:04Z</time>
      </trkpt>
      <trkpt lat="48.39202" lon="2.60468">
        <ele>139.495</ele>
        <time>2017-07-05T12:21:16Z</time>
      </trkpt>
      <trkpt lat="48.39192" lon="2.60482">
        <ele>139.535</ele>
        <time>2017-07-05T12:21:29Z</time>
      </trkpt>
      <trkpt lat="48.3918" lon="2.60498">
        <ele>139.588</ele>
        <time>2017-07-05T12:21:45Z</time>
      </trkpt>
      <trkpt lat="48.39168" lon="2.60513">
        <ele>139.626</ele>
        <time>2017-07-05T12:22:00Z</time>
      </trkpt>
      <trkpt lat="48.39168" lon="2.60513">
        <ele>139.626</ele>
        <time>2017-07-05T12:22:07Z</time>
      </trkpt>
      <trkpt lat="48.39168" lon="2.60513">
        <ele>107.3</ele>
        <time>2017-07-05T12:22:07Z</time>
      </trkpt>
      <trkpt lat="48.39168" lon="2.60513">
        <ele>107.3</ele>
        <time>2017-07-05T12:22:19Z</time>
      </trkpt>
      <trkpt lat="48.39157" lon="2.6052">
        <ele>139.679</ele>
        <time>2017-07-05T12:22:19Z</time>
      </trkpt>
      <trkpt lat="48.39146" lon="2.60527">
        <ele>139.738</ele>
        <time>2017-07-05T12:22:32Z</time>
      </trkpt>
      <trkpt lat="48.3913" lon="2.60535">
        <ele>139.837</ele>
        <time>2017-07-05T12:22:50Z</time>
      </trkpt>
      <trkpt lat="48.39121" lon="2.60536">
        <ele>139.876</ele>
        <time>2017-07-05T12:22:56Z</time>
      </trkpt>
      <trkpt lat="48.39121" lon="2.60536">
        <ele>113.4</ele>
        <time>2017-07-05T12:23:01Z</time>
      </trkpt>
      <trkpt lat="48.39121" lon="2.60536">
        <ele>113.4</ele>
        <time>2017-07-05T12:23:04Z</time>
      </trkpt>
      <trkpt lat="48.39113" lon="2.60541">
        <ele>139.94</ele>
        <time>2017-07-05T12:23:04Z</time>
      </trkpt>
      <trkpt lat="48.39098" lon="2.60552">
        <ele>140.073</ele>
        <time>2017-07-05T12:23:17Z</time>
      </trkpt>
      <trkpt lat="48.39088" lon="2.60558">
        <ele>140.235</ele>
        <time>2017-07-05T12:23:31Z</time>
      </trkpt>
      <trkpt lat="48.39068" lon="2.60567">
        <ele>140.411</ele>
        <time>2017-07-05T12:23:49Z</time>
      </trkpt>
      <trkpt lat="48.39048" lon="2.60581">
        <ele>140.611</ele>
        <time>2017-07-05T12:24:05Z</time>
      </trkpt>
      <trkpt lat="48.39033" lon="2.6059">
        <ele>140.886</ele>
        <time>2017-07-05T12:24:20Z</time>
      </trkpt>
      <trkpt lat="48.39019" lon="2.60599">
        <ele>141.089</ele>
        <time>2017-07-05T12:24:31Z</time>
      </trkpt>
      <trkpt lat="48.39008" lon="2.60604">
        <ele>141.283</ele>
        <time>2017-07-05T12:24:40Z</time>
      </trkpt>
      <trkpt lat="48.38993" lon="2.60605">
        <ele>141.665</ele>
        <time>2017-07-05T12:24:58Z</time>
      </trkpt>
      <trkpt lat="48.38976" lon="2.60614">
        <ele>142.121</ele>
        <time>2017-07-05T12:25:14Z</time>
      </trkpt>
      <trkpt lat="48.38961" lon="2.60625">
        <ele>142.643</ele>
        <time>2017-07-05T12:25:30Z</time>
      </trkpt>
      <trkpt lat="48.38961" lon="2.60625">
        <ele>125</ele>
        <time>2017-07-05T12:25:38Z</time>
      </trkpt>
      <trkpt lat="48.38961" lon="2.60625">
        <ele>125</ele>
        <time>2017-07-05T12:25:41Z</time>
      </trkpt>
      <trkpt lat="48.38956" lon="2.60626">
        <ele>143.027</ele>
        <time>2017-07-05T12:25:41Z</time>
      </trkpt>
      <trkpt lat="48.38947" lon="2.60628">
        <ele>143.574</ele>
        <time>2017-07-05T12:25:56Z</time>
      </trkpt>
      <trkpt lat="48.38931" lon="2.60632">
        <ele>144.084</ele>
        <time>2017-07-05T12:26:10Z</time>
      </trkpt>
      <trkpt lat="48.38928" lon="2.60632">
        <ele>144.227</ele>
        <time>2017-07-05T12:26:14Z</time>
      </trkpt>
      <trkpt lat="48.38928" lon="2.60632">
        <ele>125</ele>
        <time>2017-07-05T12:26:21Z</time>
      </trkpt>
      <trkpt lat="48.38928" lon="2.60632">
        <ele>125</ele>
        <time>2017-07-05T12:26:55Z</time>
      </trkpt>
      <trkpt lat="48.38903" lon="2.60642">
        <ele>145.922</ele>
        <time>2017-07-05T12:26:55Z</time>
      </trkpt>
      <trkpt lat="48.38884" lon="2.60648">
        <ele>146.819</ele>
        <time>2017-07-05T12:27:12Z</time>
      </trkpt>
      <trkpt lat="48.38868" lon="2.60659">
        <ele>147.513</ele>
        <time>2017-07-05T12:27:26Z</time>
      </trkpt>
      <trkpt lat="48.38851" lon="2.60667">
        <ele>148.251</ele>
        <time>2017-07-05T12:27:42Z</time>
      </trkpt>
      <trkpt lat="48.38834" lon="2.60678">
        <ele>148.896</ele>
        <time>2017-07-05T12:27:57Z</time>
      </trkpt>
      <trkpt lat="48.38811" lon="2.60691">
        <ele>149.651</ele>
        <time>2017-07-05T12:28:16Z</time>
      </trkpt>
      <trkpt lat="48.38802" lon="2.60697">
        <ele>150.019</ele>
        <time>2017-07-05T12:28:28Z</time>
      </trkpt>
      <trkpt lat="48.38792" lon="2.60694">
        <ele>150.333</ele>
        <time>2017-07-05T12:28:36Z</time>
      </trkpt>
      <trkpt lat="48.38792" lon="2.60694">
        <ele>124</ele>
        <time>2017-07-05T12:28:43Z</time>
      </trkpt>
      <trkpt lat="48.38792" lon="2.60694">
        <ele>124</ele>
        <time>2017-07-05T12:28:48Z</time>
      </trkpt>
      <trkpt lat="48.38787" lon="2.60707">
        <ele>150.799</ele>
        <time>2017-07-05T12:28:48Z</time>
      </trkpt>
      <trkpt lat="48.38784" lon="2.60726">
        <ele>151.249</ele>
        <time>2017-07-05T12:29:01Z</time>
      </trkpt>
      <trkpt lat="48.3878" lon="2.60765">
        <ele>152.142</ele>
        <time>2017-07-05T12:29:29Z</time>
      </trkpt>
      <trkpt lat="48.38778" lon="2.60792">
        <ele>152.527</ele>
        <time>2017-07-05T12:29:41Z</time>
      </trkpt>
      <trkpt lat="48.38773" lon="2.60811">
        <ele>152.89</ele>
        <time>2017-07-05T12:29:52Z</time>
      </trkpt>
      <trkpt lat="48.38766" lon="2.60836">
        <ele>153.382</ele>
        <time>2017-07-05T12:30:08Z</time>
      </trkpt>
      <trkpt lat="48.38766" lon="2.60858">
        <ele>153.674</ele>
        <time>2017-07-05T12:30:19Z</time>
      </trkpt>
      <trkpt lat="48.38767" lon="2.60878">
        <ele>154.122</ele>
        <time>2017-07-05T12:30:34Z</time>
      </trkpt>
      <trkpt lat="48.38764" lon="2.60908">
        <ele>154.701</ele>
        <time>2017-07-05T12:30:51Z</time>
      </trkpt>
      <trkpt lat="48.38756" lon="2.60945">
        <ele>155.339</ele>
        <time>2017-07-05T12:31:12Z</time>
      </trkpt>
      <trkpt lat="48.38753" lon="2.60959">
        <ele>155.544</ele>
        <time>2017-07-05T12:31:20Z</time>
      </trkpt>
      <trkpt lat="48.38753" lon="2.60959">
        <ele>125</ele>
        <time>2017-07-05T12:31:27Z</time>
      </trkpt>
      <trkpt lat="48.38753" lon="2.60959">
        <ele>125</ele>
        <time>2017-07-05T12:31:53Z</time>
      </trkpt>
      <trkpt lat="48.3874" lon="2.60956">
        <ele>156.218</ele>
        <time>2017-07-05T12:31:53Z</time>
      </trkpt>
      <trkpt lat="48.38734" lon="2.60947">
        <ele>156.48</ele>
        <time>2017-07-05T12:32:03Z</time>
      </trkpt>
      <trkpt lat="48.38721" lon="2.60933">
        <ele>156.748</ele>
        <time>2017-07-05T12:32:15Z</time>
      </trkpt>
      <trkpt lat="48.38715" lon="2.60926">
        <ele>156.938</ele>
        <time>2017-07-05T12:32:24Z</time>
      </trkpt>
      <trkpt lat="48.3871" lon="2.60925">
        <ele>157.082</ele>
        <time>2017-07-05T12:32:30Z</time>
      </trkpt>
      <trkpt lat="48.3871" lon="2.60925">
        <ele>125</ele>
        <time>2017-07-05T12:32:37Z</time>
      </trkpt>
      <trkpt lat="48.3871" lon="2.60925">
        <ele>125</ele>
        <time>2017-07-05T12:32:54Z</time>
      </trkpt>
      <trkpt lat="48.38722" lon="2.60949">
        <ele>157.598</ele>
        <time>2017-07-05T12:32:54Z</time>
      </trkpt>
      <trkpt lat="48.38729" lon="2.60965">
        <ele>157.796</ele>
        <time>2017-07-05T12:33:06Z</time>
      </trkpt>
      <trkpt lat="48.3874" lon="2.60969">
        <ele>157.934</ele>
        <time>2017-07-05T12:33:21Z</time>
      </trkpt>
      <trkpt lat="48.38748" lon="2.60993">
        <ele>158.027</ele>
        <time>2017-07-05T12:33:35Z</time>
      </trkpt>
      <trkpt lat="48.38748" lon="2.61024">
        <ele>158.123</ele>
        <time>2017-07-05T12:33:54Z</time>
      </trkpt>
      <trkpt lat="48.38749" lon="2.61045">
        <ele>158.219</ele>
        <time>2017-07-05T12:34:07Z</time>
      </trkpt>
      <trkpt lat="48.38742" lon="2.61074">
        <ele>158.324</ele>
        <time>2017-07-05T12:34:22Z</time>
      </trkpt>
      <trkpt lat="48.3874" lon="2.61094">
        <ele>158.384</ele>
        <time>2017-07-05T12:34:31Z</time>
      </trkpt>
      <trkpt lat="48.38735" lon="2.61126">
        <ele>158.598</ele>
        <time>2017-07-05T12:34:51Z</time>
      </trkpt>
      <trkpt lat="48.38735" lon="2.61149">
        <ele>158.831</ele>
        <time>2017-07-05T12:35:06Z</time>
      </trkpt>
      <trkpt lat="48.3873" lon="2.61185">
        <ele>159.091</ele>
        <time>2017-07-05T12:35:26Z</time>
      </trkpt>
      <trkpt lat="48.38729" lon="2.61213">
        <ele>159.294</ele>
        <time>2017-07-05T12:35:43Z</time>
      </trkpt>
      <trkpt lat="48.38724" lon="2.61244">
        <ele>159.539</ele>
        <time>2017-07-05T12:36:00Z</time>
      </trkpt>
      <trkpt lat="48.38719" lon="2.6127">
        <ele>159.742</ele>
        <time>2017-07-05T12:36:15Z</time>
      </trkpt>
      <trkpt lat="48.38721" lon="2.61291">
        <ele>159.867</ele>
        <time>2017-07-05T12:36:25Z</time>
      </trkpt>
      <trkpt lat="48.38711" lon="2.61328">
        <ele>160.125</ele>
        <time>2017-07-05T12:36:43Z</time>
      </trkpt>
      <trkpt lat="48.38708" lon="2.6135">
        <ele>160.305</ele>
        <time>2017-07-05T12:36:56Z</time>
      </trkpt>
      <trkpt lat="48.38706" lon="2.61369">
        <ele>160.447</ele>
        <time>2017-07-05T12:37:06Z</time>
      </trkpt>
      <trkpt lat="48.38702" lon="2.61385">
        <ele>160.59</ele>
        <time>2017-07-05T12:37:17Z</time>
      </trkpt>
      <trkpt lat="48.38701" lon="2.61416">
        <ele>160.791</ele>
        <time>2017-07-05T12:37:34Z</time>
      </trkpt>
      <trkpt lat="48.387" lon="2.61436">
        <ele>160.93</ele>
        <time>2017-07-05T12:37:47Z</time>
      </trkpt>
      <trkpt lat="48.38696" lon="2.61459">
        <ele>161.043</ele>
        <time>2017-07-05T12:38:00Z</time>
      </trkpt>
      <trkpt lat="48.38689" lon="2.61486">
        <ele>161.181</ele>
        <time>2017-07-05T12:38:14Z</time>
      </trkpt>
      <trkpt lat="48.38677" lon="2.6151">
        <ele>161.468</ele>
        <time>2017-07-05T12:38:34Z</time>
      </trkpt>
      <trkpt lat="48.38657" lon="2.61529">
        <ele>161.814</ele>
        <time>2017-07-05T12:38:54Z</time>
      </trkpt>
      <trkpt lat="48.3864" lon="2.61539">
        <ele>162.108</ele>
        <time>2017-07-05T12:39:09Z</time>
      </trkpt>
      <trkpt lat="48.38624" lon="2.61552">
        <ele>162.514</ele>
        <time>2017-07-05T12:39:24Z</time>
      </trkpt>
      <trkpt lat="48.38605" lon="2.61566">
        <ele>162.972</ele>
        <time>2017-07-05T12:39:42Z</time>
      </trkpt>
      <trkpt lat="48.38589" lon="2.61577">
        <ele>163.319</ele>
        <time>2017-07-05T12:39:57Z</time>
      </trkpt>
      <trkpt lat="48.38575" lon="2.61587">
        <ele>163.587</ele>
        <time>2017-07-05T12:40:10Z</time>
      </trkpt>
      <trkpt lat="48.38566" lon="2.61596">
        <ele>163.753</ele>
        <time>2017-07-05T12:40:18Z</time>
      </trkpt>
      <trkpt lat="48.38566" lon="2.61596">
        <ele>125.8</ele>
        <time>2017-07-05T12:40:25Z</time>
      </trkpt>
      <trkpt lat="48.38566" lon="2.61596">
        <ele>125.8</ele>
        <time>2017-07-05T12:40:33Z</time>
      </trkpt>
      <trkpt lat="48.38561" lon="2.61608">
        <ele>164.121</ele>
        <time>2017-07-05T12:40:33Z</time>
      </trkpt>
      <trkpt lat="48.3857" lon="2.61626">
        <ele>164.419</ele>
        <time>2017-07-05T12:40:46Z</time>
      </trkpt>
      <trkpt lat="48.38566" lon="2.6166">
        <ele>164.6</ele>
        <time>2017-07-05T12:41:00Z</time>
      </trkpt>
      <trkpt lat="48.38569" lon="2.61682">
        <ele>164.714</ele>
        <time>2017-07-05T12:41:13Z</time>
      </trkpt>
      <trkpt lat="48.3857" lon="2.61696">
        <ele>164.753</ele>
        <time>2017-07-05T12:41:21Z</time>
      </trkpt>
      <trkpt lat="48.38571" lon="2.61713">
        <ele>164.768</ele>
        <time>2017-07-05T12:41:32Z</time>
      </trkpt>
      <trkpt lat="48.38573" lon="2.61742">
        <ele>164.699</ele>
        <time>2017-07-05T12:41:48Z</time>
      </trkpt>
      <trkpt lat="48.38577" lon="2.61769">
        <ele>164.617</ele>
        <time>2017-07-05T12:42:01Z</time>
      </trkpt>
      <trkpt lat="48.38575" lon="2.61791">
        <ele>164.524</ele>
        <time>2017-07-05T12:42:13Z</time>
      </trkpt>
      <trkpt lat="48.3858" lon="2.61816">
        <ele>164.368</ele>
        <time>2017-07-05T12:42:31Z</time>
      </trkpt>
      <trkpt lat="48.38585" lon="2.61852">
        <ele>164.184</ele>
        <time>2017-07-05T12:42:49Z</time>
      </trkpt>
      <trkpt lat="48.38587" lon="2.61875">
        <ele>164.019</ele>
        <time>2017-07-05T12:43:02Z</time>
      </trkpt>
      <trkpt lat="48.38594" lon="2.61899">
        <ele>163.906</ele>
        <time>2017-07-05T12:43:14Z</time>
      </trkpt>
      <trkpt lat="48.38601" lon="2.61922">
        <ele>163.852</ele>
        <time>2017-07-05T12:43:25Z</time>
      </trkpt>
      <trkpt lat="48.38603" lon="2.61931">
        <ele>163.856</ele>
        <time>2017-07-05T12:43:30Z</time>
      </trkpt>
      <trkpt lat="48.38603" lon="2.61931">
        <ele>126</ele>
        <time>2017-07-05T12:43:35Z</time>
      </trkpt>
      <trkpt lat="48.38603" lon="2.61931">
        <ele>126</ele>
        <time>2017-07-05T12:43:52Z</time>
      </trkpt>
      <trkpt lat="48.38606" lon="2.61962">
        <ele>164.032</ele>
        <time>2017-07-05T12:43:52Z</time>
      </trkpt>
      <trkpt lat="48.3861" lon="2.6198">
        <ele>164.078</ele>
        <time>2017-07-05T12:44:04Z</time>
      </trkpt>
      <trkpt lat="48.38616" lon="2.62004">
        <ele>164.125</ele>
        <time>2017-07-05T12:44:19Z</time>
      </trkpt>
      <trkpt lat="48.38623" lon="2.62032">
        <ele>164.169</ele>
        <time>2017-07-05T12:44:34Z</time>
      </trkpt>
      <trkpt lat="48.38626" lon="2.62055">
        <ele>164.188</ele>
        <time>2017-07-05T12:44:47Z</time>
      </trkpt>
      <trkpt lat="48.38632" lon="2.62078">
        <ele>164.204</ele>
        <time>2017-07-05T12:44:58Z</time>
      </trkpt>
      <trkpt lat="48.38635" lon="2.62097">
        <ele>164.324</ele>
        <time>2017-07-05T12:45:14Z</time>
      </trkpt>
      <trkpt lat="48.38642" lon="2.62115">
        <ele>164.436</ele>
        <time>2017-07-05T12:45:27Z</time>
      </trkpt>
      <trkpt lat="48.38646" lon="2.62141">
        <ele>164.569</ele>
        <time>2017-07-05T12:45:42Z</time>
      </trkpt>
      <trkpt lat="48.38651" lon="2.62166">
        <ele>164.643</ele>
        <time>2017-07-05T12:45:54Z</time>
      </trkpt>
      <trkpt lat="48.38655" lon="2.62186">
        <ele>164.687</ele>
        <time>2017-07-05T12:46:04Z</time>
      </trkpt>
      <trkpt lat="48.38662" lon="2.62213">
        <ele>164.732</ele>
        <time>2017-07-05T12:46:21Z</time>
      </trkpt>
      <trkpt lat="48.38663" lon="2.62243">
        <ele>164.754</ele>
        <time>2017-07-05T12:46:38Z</time>
      </trkpt>
      <trkpt lat="48.38661" lon="2.62261">
        <ele>164.75</ele>
        <time>2017-07-05T12:46:46Z</time>
      </trkpt>
      <trkpt lat="48.38668" lon="2.62274">
        <ele>164.748</ele>
        <time>2017-07-05T12:46:55Z</time>
      </trkpt>
      <trkpt lat="48.38674" lon="2.6231">
        <ele>164.711</ele>
        <time>2017-07-05T12:47:15Z</time>
      </trkpt>
      <trkpt lat="48.38674" lon="2.62332">
        <ele>164.699</ele>
        <time>2017-07-05T12:47:27Z</time>
      </trkpt>
      <trkpt lat="48.38675" lon="2.62353">
        <ele>164.683</ele>
        <time>2017-07-05T12:47:37Z</time>
      </trkpt>
      <trkpt lat="48.3868" lon="2.62382">
        <ele>164.683</ele>
        <time>2017-07-05T12:47:54Z</time>
      </trkpt>
      <trkpt lat="48.38684" lon="2.62413">
        <ele>164.685</ele>
        <time>2017-07-05T12:48:11Z</time>
      </trkpt>
      <trkpt lat="48.3869" lon="2.62443">
        <ele>164.695</ele>
        <time>2017-07-05T12:48:28Z</time>
      </trkpt>
      <trkpt lat="48.38695" lon="2.62469">
        <ele>164.717</ele>
        <time>2017-07-05T12:48:44Z</time>
      </trkpt>
      <trkpt lat="48.387" lon="2.62487">
        <ele>164.733</ele>
        <time>2017-07-05T12:49:00Z</time>
      </trkpt>
      <trkpt lat="48.38693" lon="2.62504">
        <ele>164.751</ele>
        <time>2017-07-05T12:49:15Z</time>
      </trkpt>
      <trkpt lat="48.38685" lon="2.62529">
        <ele>164.816</ele>
        <time>2017-07-05T12:49:32Z</time>
      </trkpt>
      <trkpt lat="48.38678" lon="2.62566">
        <ele>164.891</ele>
        <time>2017-07-05T12:49:52Z</time>
      </trkpt>
      <trkpt lat="48.3867" lon="2.62587">
        <ele>165.053</ele>
        <time>2017-07-05T12:50:06Z</time>
      </trkpt>
      <trkpt lat="48.38664" lon="2.62616">
        <ele>165.242</ele>
        <time>2017-07-05T12:50:24Z</time>
      </trkpt>
      <trkpt lat="48.38657" lon="2.62643">
        <ele>165.401</ele>
        <time>2017-07-05T12:50:40Z</time>
      </trkpt>
      <trkpt lat="48.38649" lon="2.62669">
        <ele>165.547</ele>
        <time>2017-07-05T12:50:57Z</time>
      </trkpt>
      <trkpt lat="48.38641" lon="2.62695">
        <ele>165.653</ele>
        <time>2017-07-05T12:51:12Z</time>
      </trkpt>
      <trkpt lat="48.38636" lon="2.62717">
        <ele>165.766</ele>
        <time>2017-07-05T12:51:27Z</time>
      </trkpt>
      <trkpt lat="48.38636" lon="2.62717">
        <ele>165.766</ele>
        <time>2017-07-05T12:51:34Z</time>
      </trkpt>
      <trkpt lat="48.38636" lon="2.62717">
        <ele>129</ele>
        <time>2017-07-05T12:51:34Z</time>
      </trkpt>
      <trkpt lat="48.38636" lon="2.62717">
        <ele>129</ele>
        <time>2017-07-05T12:51:40Z</time>
      </trkpt>
      <trkpt lat="48.38633" lon="2.62731">
        <ele>165.854</ele>
        <time>2017-07-05T12:51:40Z</time>
      </trkpt>
      <trkpt lat="48.38629" lon="2.62754">
        <ele>165.906</ele>
        <time>2017-07-05T12:51:48Z</time>
      </trkpt>
      <trkpt lat="48.38618" lon="2.62776">
        <ele>165.955</ele>
        <time>2017-07-05T12:51:57Z</time>
      </trkpt>
      <trkpt lat="48.38618" lon="2.62776">
        <ele>129</ele>
        <time>2017-07-05T12:52:04Z</time>
      </trkpt>
      <trkpt lat="48.38618" lon="2.62776">
        <ele>129</ele>
        <time>2017-07-05T12:52:12Z</time>
      </trkpt>
      <trkpt lat="48.38614" lon="2.62785">
        <ele>166.041</ele>
        <time>2017-07-05T12:52:12Z</time>
      </trkpt>
      <trkpt lat="48.38614" lon="2.62785">
        <ele>166.041</ele>
        <time>2017-07-05T12:57:10Z</time>
      </trkpt>
      <trkpt lat="48.38605" lon="2.6281">
        <ele>167.971</ele>
        <time>2017-07-05T12:57:44Z</time>
      </trkpt>
      <trkpt lat="48.38602" lon="2.62829">
        <ele>168.085</ele>
        <time>2017-07-05T12:57:56Z</time>
      </trkpt>
      <trkpt lat="48.38599" lon="2.62847">
        <ele>168.159</ele>
        <time>2017-07-05T12:58:06Z</time>
      </trkpt>
      <trkpt lat="48.3859" lon="2.62873">
        <ele>168.28</ele>
        <time>2017-07-05T12:58:25Z</time>
      </trkpt>
      <trkpt lat="48.38588" lon="2.62891">
        <ele>168.356</ele>
        <time>2017-07-05T12:58:37Z</time>
      </trkpt>
      <trkpt lat="48.38579" lon="2.6292">
        <ele>168.408</ele>
        <time>2017-07-05T12:58:50Z</time>
      </trkpt>
      <trkpt lat="48.38579" lon="2.62928">
        <ele>168.42</ele>
        <time>2017-07-05T12:58:55Z</time>
      </trkpt>
      <trkpt lat="48.38579" lon="2.62928">
        <ele>128</ele>
        <time>2017-07-05T12:59:00Z</time>
      </trkpt>
      <trkpt lat="48.38579" lon="2.62928">
        <ele>128</ele>
        <time>2017-07-05T12:59:14Z</time>
      </trkpt>
      <trkpt lat="48.38574" lon="2.62954">
        <ele>168.445</ele>
        <time>2017-07-05T12:59:14Z</time>
      </trkpt>
      <trkpt lat="48.38565" lon="2.6298">
        <ele>168.494</ele>
        <time>2017-07-05T12:59:31Z</time>
      </trkpt>
      <trkpt lat="48.38559" lon="2.63001">
        <ele>168.534</ele>
        <time>2017-07-05T12:59:41Z</time>
      </trkpt>
      <trkpt lat="48.38553" lon="2.63013">
        <ele>168.556</ele>
        <time>2017-07-05T12:59:49Z</time>
      </trkpt>
      <trkpt lat="48.38553" lon="2.63013">
        <ele>128</ele>
        <time>2017-07-05T12:59:56Z</time>
      </trkpt>
      <trkpt lat="48.38553" lon="2.63013">
        <ele>128</ele>
        <time>2017-07-05T13:00:24Z</time>
      </trkpt>
      <trkpt lat="48.38553" lon="2.63051">
        <ele>168.519</ele>
        <time>2017-07-05T13:00:24Z</time>
      </trkpt>
      <trkpt lat="48.38553" lon="2.63075">
        <ele>168.435</ele>
        <time>2017-07-05T13:00:38Z</time>
      </trkpt>
      <trkpt lat="48.38548" lon="2.63093">
        <ele>168.412</ele>
        <time>2017-07-05T13:00:51Z</time>
      </trkpt>
      <trkpt lat="48.38543" lon="2.63099">
        <ele>168.416</ele>
        <time>2017-07-05T13:00:57Z</time>
      </trkpt>
      <trkpt lat="48.38543" lon="2.63099">
        <ele>128</ele>
        <time>2017-07-05T13:01:05Z</time>
      </trkpt>
      <trkpt lat="48.38543" lon="2.63099">
        <ele>128</ele>
        <time>2017-07-05T13:01:33Z</time>
      </trkpt>
      <trkpt lat="48.38531" lon="2.63097">
        <ele>168.42</ele>
        <time>2017-07-05T13:01:33Z</time>
      </trkpt>
      <trkpt lat="48.38521" lon="2.63107">
        <ele>168.384</ele>
        <time>2017-07-05T13:01:46Z</time>
      </trkpt>
      <trkpt lat="48.38491" lon="2.63123">
        <ele>168.314</ele>
        <time>2017-07-05T13:02:23Z</time>
      </trkpt>
      <trkpt lat="48.38483" lon="2.63139">
        <ele>168.347</ele>
        <time>2017-07-05T13:02:36Z</time>
      </trkpt>
      <trkpt lat="48.38475" lon="2.63153">
        <ele>168.399</ele>
        <time>2017-07-05T13:02:50Z</time>
      </trkpt>
      <trkpt lat="48.3847" lon="2.63166">
        <ele>168.421</ele>
        <time>2017-07-05T13:02:56Z</time>
      </trkpt>
      <trkpt lat="48.3847" lon="2.63166">
        <ele>127</ele>
        <time>2017-07-05T13:03:03Z</time>
      </trkpt>
      <trkpt lat="48.3847" lon="2.63166">
        <ele>127</ele>
        <time>2017-07-05T13:03:10Z</time>
      </trkpt>
      <trkpt lat="48.38468" lon="2.63178">
        <ele>168.459</ele>
        <time>2017-07-05T13:03:10Z</time>
      </trkpt>
      <trkpt lat="48.3845" lon="2.63215">
        <ele>168.509</ele>
        <time>2017-07-05T13:03:29Z</time>
      </trkpt>
      <trkpt lat="48.38443" lon="2.6323">
        <ele>168.538</ele>
        <time>2017-07-05T13:03:40Z</time>
      </trkpt>
      <trkpt lat="48.38437" lon="2.63236">
        <ele>168.564</ele>
        <time>2017-07-05T13:03:48Z</time>
      </trkpt>
      <trkpt lat="48.38437" lon="2.63236">
        <ele>126</ele>
        <time>2017-07-05T13:03:56Z</time>
      </trkpt>
      <trkpt lat="48.38437" lon="2.63236">
        <ele>126</ele>
        <time>2017-07-05T13:03:59Z</time>
      </trkpt>
      <trkpt lat="48.38434" lon="2.63242">
        <ele>168.594</ele>
        <time>2017-07-05T13:03:59Z</time>
      </trkpt>
      <trkpt lat="48.38426" lon="2.63253">
        <ele>168.624</ele>
        <time>2017-07-05T13:04:09Z</time>
      </trkpt>
      <trkpt lat="48.38417" lon="2.63277">
        <ele>168.651</ele>
        <time>2017-07-05T13:04:27Z</time>
      </trkpt>
      <trkpt lat="48.3841" lon="2.63291">
        <ele>168.644</ele>
        <time>2017-07-05T13:04:37Z</time>
      </trkpt>
      <trkpt lat="48.38404" lon="2.63303">
        <ele>168.651</ele>
        <time>2017-07-05T13:04:44Z</time>
      </trkpt>
      <trkpt lat="48.38402" lon="2.63307">
        <ele>168.656</ele>
        <time>2017-07-05T13:04:47Z</time>
      </trkpt>
      <trkpt lat="48.38402" lon="2.63307">
        <ele>126</ele>
        <time>2017-07-05T13:04:53Z</time>
      </trkpt>
      <trkpt lat="48.38402" lon="2.63307">
        <ele>126</ele>
        <time>2017-07-05T13:04:59Z</time>
      </trkpt>
      <trkpt lat="48.38395" lon="2.63316">
        <ele>168.669</ele>
        <time>2017-07-05T13:04:59Z</time>
      </trkpt>
      <trkpt lat="48.38385" lon="2.63355">
        <ele>168.679</ele>
        <time>2017-07-05T13:05:21Z</time>
      </trkpt>
      <trkpt lat="48.38377" lon="2.63371">
        <ele>168.704</ele>
        <time>2017-07-05T13:05:34Z</time>
      </trkpt>
      <trkpt lat="48.38367" lon="2.63386">
        <ele>168.733</ele>
        <time>2017-07-05T13:05:47Z</time>
      </trkpt>
      <trkpt lat="48.38355" lon="2.63412">
        <ele>168.746</ele>
        <time>2017-07-05T13:06:02Z</time>
      </trkpt>
      <trkpt lat="48.38347" lon="2.63427">
        <ele>168.75</ele>
        <time>2017-07-05T13:06:09Z</time>
      </trkpt>
      <trkpt lat="48.38339" lon="2.63446">
        <ele>168.712</ele>
        <time>2017-07-05T13:06:20Z</time>
      </trkpt>
      <trkpt lat="48.38335" lon="2.63463">
        <ele>168.639</ele>
        <time>2017-07-05T13:06:35Z</time>
      </trkpt>
      <trkpt lat="48.38329" lon="2.63484">
        <ele>168.596</ele>
        <time>2017-07-05T13:06:49Z</time>
      </trkpt>
      <trkpt lat="48.38324" lon="2.63502">
        <ele>168.541</ele>
        <time>2017-07-05T13:07:01Z</time>
      </trkpt>
      <trkpt lat="48.38321" lon="2.63537">
        <ele>168.403</ele>
        <time>2017-07-05T13:07:18Z</time>
      </trkpt>
      <trkpt lat="48.38321" lon="2.63537">
        <ele>168.403</ele>
        <time>2017-07-05T13:07:23Z</time>
      </trkpt>
      <trkpt lat="48.38321" lon="2.63537">
        <ele>127.2</ele>
        <time>2017-07-05T13:07:23Z</time>
      </trkpt>
      <trkpt lat="48.38321" lon="2.63537">
        <ele>127.2</ele>
        <time>2017-07-05T13:07:27Z</time>
      </trkpt>
      <trkpt lat="48.38317" lon="2.63551">
        <ele>168.362</ele>
        <time>2017-07-05T13:07:27Z</time>
      </trkpt>
      <trkpt lat="48.38317" lon="2.6357">
        <ele>168.313</ele>
        <time>2017-07-05T13:07:41Z</time>
      </trkpt>
      <trkpt lat="48.38315" lon="2.63589">
        <ele>168.295</ele>
        <time>2017-07-05T13:07:49Z</time>
      </trkpt>
      <trkpt lat="48.38311" lon="2.63611">
        <ele>168.288</ele>
        <time>2017-07-05T13:08:03Z</time>
      </trkpt>
      <trkpt lat="48.3831" lon="2.63636">
        <ele>168.278</ele>
        <time>2017-07-05T13:08:20Z</time>
      </trkpt>
      <trkpt lat="48.38309" lon="2.63671">
        <ele>168.265</ele>
        <time>2017-07-05T13:08:40Z</time>
      </trkpt>
      <trkpt lat="48.38308" lon="2.63689">
        <ele>168.263</ele>
        <time>2017-07-05T13:08:54Z</time>
      </trkpt>
      <trkpt lat="48.38311" lon="2.63714">
        <ele>168.221</ele>
        <time>2017-07-05T13:09:13Z</time>
      </trkpt>
      <trkpt lat="48.38307" lon="2.63752">
        <ele>168.173</ele>
        <time>2017-07-05T13:09:29Z</time>
      </trkpt>
      <trkpt lat="48.38304" lon="2.63774">
        <ele>168.127</ele>
        <time>2017-07-05T13:09:42Z</time>
      </trkpt>
      <trkpt lat="48.383" lon="2.63801">
        <ele>168.092</ele>
        <time>2017-07-05T13:09:58Z</time>
      </trkpt>
      <trkpt lat="48.38298" lon="2.63826">
        <ele>168.061</ele>
        <time>2017-07-05T13:10:11Z</time>
      </trkpt>
      <trkpt lat="48.383" lon="2.6386">
        <ele>168.013</ele>
        <time>2017-07-05T13:10:30Z</time>
      </trkpt>
      <trkpt lat="48.383" lon="2.63886">
        <ele>167.945</ele>
        <time>2017-07-05T13:10:45Z</time>
      </trkpt>
      <trkpt lat="48.38302" lon="2.63906">
        <ele>167.876</ele>
        <time>2017-07-05T13:10:56Z</time>
      </trkpt>
      <trkpt lat="48.38304" lon="2.63925">
        <ele>167.786</ele>
        <time>2017-07-05T13:11:07Z</time>
      </trkpt>
      <trkpt lat="48.38302" lon="2.63948">
        <ele>167.681</ele>
        <time>2017-07-05T13:11:24Z</time>
      </trkpt>
      <trkpt lat="48.38308" lon="2.63972">
        <ele>167.597</ele>
        <time>2017-07-05T13:11:38Z</time>
      </trkpt>
      <trkpt lat="48.38305" lon="2.63996">
        <ele>167.521</ele>
        <time>2017-07-05T13:11:50Z</time>
      </trkpt>
      <trkpt lat="48.38296" lon="2.64019">
        <ele>167.427</ele>
        <time>2017-07-05T13:12:06Z</time>
      </trkpt>
      <trkpt lat="48.38286" lon="2.64035">
        <ele>167.369</ele>
        <time>2017-07-05T13:12:24Z</time>
      </trkpt>
      <trkpt lat="48.38276" lon="2.64054">
        <ele>167.306</ele>
        <time>2017-07-05T13:12:41Z</time>
      </trkpt>
      <trkpt lat="48.38267" lon="2.64075">
        <ele>167.271</ele>
        <time>2017-07-05T13:12:48Z</time>
      </trkpt>
      <trkpt lat="48.38265" lon="2.64088">
        <ele>167.245</ele>
        <time>2017-07-05T13:12:53Z</time>
      </trkpt>
      <trkpt lat="48.38265" lon="2.64088">
        <ele>126.9</ele>
        <time>2017-07-05T13:12:58Z</time>
      </trkpt>
      <trkpt lat="48.38265" lon="2.64088">
        <ele>126.9</ele>
        <time>2017-07-05T13:13:03Z</time>
      </trkpt>
      <trkpt lat="48.38266" lon="2.64102">
        <ele>167.19</ele>
        <time>2017-07-05T13:13:03Z</time>
      </trkpt>
      <trkpt lat="48.38273" lon="2.6414">
        <ele>167.007</ele>
        <time>2017-07-05T13:13:21Z</time>
      </trkpt>
      <trkpt lat="48.38275" lon="2.64162">
        <ele>166.889</ele>
        <time>2017-07-05T13:13:34Z</time>
      </trkpt>
      <trkpt lat="48.3828" lon="2.6419">
        <ele>166.767</ele>
        <time>2017-07-05T13:13:54Z</time>
      </trkpt>
      <trkpt lat="48.38272" lon="2.64219">
        <ele>166.723</ele>
        <time>2017-07-05T13:14:12Z</time>
      </trkpt>
      <trkpt lat="48.38269" lon="2.64249">
        <ele>166.684</ele>
        <time>2017-07-05T13:14:27Z</time>
      </trkpt>
      <trkpt lat="48.38267" lon="2.64271">
        <ele>166.655</ele>
        <time>2017-07-05T13:14:41Z</time>
      </trkpt>
      <trkpt lat="48.38273" lon="2.64301">
        <ele>166.593</ele>
        <time>2017-07-05T13:14:58Z</time>
      </trkpt>
      <trkpt lat="48.38272" lon="2.64326">
        <ele>166.517</ele>
        <time>2017-07-05T13:15:14Z</time>
      </trkpt>
      <trkpt lat="48.38272" lon="2.64326">
        <ele>166.517</ele>
        <time>2017-07-05T13:15:21Z</time>
      </trkpt>
      <trkpt lat="48.38272" lon="2.64326">
        <ele>124.2</ele>
        <time>2017-07-05T13:15:21Z</time>
      </trkpt>
      <trkpt lat="48.38272" lon="2.64326">
        <ele>124.2</ele>
        <time>2017-07-05T13:15:29Z</time>
      </trkpt>
      <trkpt lat="48.38272" lon="2.64342">
        <ele>166.468</ele>
        <time>2017-07-05T13:15:29Z</time>
      </trkpt>
      <trkpt lat="48.38274" lon="2.64361">
        <ele>166.425</ele>
        <time>2017-07-05T13:15:41Z</time>
      </trkpt>
      <trkpt lat="48.38274" lon="2.64374">
        <ele>166.397</ele>
        <time>2017-07-05T13:15:47Z</time>
      </trkpt>
      <trkpt lat="48.38274" lon="2.64374">
        <ele>124.1</ele>
        <time>2017-07-05T13:15:52Z</time>
      </trkpt>
      <trkpt lat="48.38274" lon="2.64374">
        <ele>124.1</ele>
        <time>2017-07-05T13:15:57Z</time>
      </trkpt>
      <trkpt lat="48.38274" lon="2.64389">
        <ele>166.358</ele>
        <time>2017-07-05T13:15:57Z</time>
      </trkpt>
      <trkpt lat="48.38274" lon="2.64421">
        <ele>166.275</ele>
        <time>2017-07-05T13:16:18Z</time>
      </trkpt>
      <trkpt lat="48.38272" lon="2.64448">
        <ele>166.224</ele>
        <time>2017-07-05T13:16:33Z</time>
      </trkpt>
      <trkpt lat="48.38267" lon="2.64478">
        <ele>166.192</ele>
        <time>2017-07-05T13:16:51Z</time>
      </trkpt>
      <trkpt lat="48.38265" lon="2.64497">
        <ele>166.198</ele>
        <time>2017-07-05T13:17:04Z</time>
      </trkpt>
      <trkpt lat="48.38271" lon="2.64537">
        <ele>166.148</ele>
        <time>2017-07-05T13:17:26Z</time>
      </trkpt>
      <trkpt lat="48.38287" lon="2.64563">
        <ele>166.007</ele>
        <time>2017-07-05T13:17:45Z</time>
      </trkpt>
      <trkpt lat="48.38297" lon="2.64587">
        <ele>165.862</ele>
        <time>2017-07-05T13:17:58Z</time>
      </trkpt>
      <trkpt lat="48.38301" lon="2.64606">
        <ele>165.758</ele>
        <time>2017-07-05T13:18:08Z</time>
      </trkpt>
      <trkpt lat="48.38299" lon="2.64625">
        <ele>165.642</ele>
        <time>2017-07-05T13:18:21Z</time>
      </trkpt>
      <trkpt lat="48.383" lon="2.64655">
        <ele>165.518</ele>
        <time>2017-07-05T13:18:41Z</time>
      </trkpt>
      <trkpt lat="48.38297" lon="2.64669">
        <ele>165.486</ele>
        <time>2017-07-05T13:18:47Z</time>
      </trkpt>
      <trkpt lat="48.3829" lon="2.64685">
        <ele>165.436</ele>
        <time>2017-07-05T13:18:57Z</time>
      </trkpt>
      <trkpt lat="48.38291" lon="2.64715">
        <ele>165.296</ele>
        <time>2017-07-05T13:19:18Z</time>
      </trkpt>
      <trkpt lat="48.38292" lon="2.64733">
        <ele>165.215</ele>
        <time>2017-07-05T13:19:31Z</time>
      </trkpt>
      <trkpt lat="48.38288" lon="2.64759">
        <ele>165.112</ele>
        <time>2017-07-05T13:19:46Z</time>
      </trkpt>
      <trkpt lat="48.38287" lon="2.64782">
        <ele>165.034</ele>
        <time>2017-07-05T13:19:58Z</time>
      </trkpt>
      <trkpt lat="48.38287" lon="2.64782">
        <ele>121.7</ele>
        <time>2017-07-05T13:20:06Z</time>
      </trkpt>
      <trkpt lat="48.38287" lon="2.64782">
        <ele>121.7</ele>
        <time>2017-07-05T13:21:06Z</time>
      </trkpt>
      <trkpt lat="48.38291" lon="2.6483">
        <ele>164.884</ele>
        <time>2017-07-05T13:21:06Z</time>
      </trkpt>
      <trkpt lat="48.38291" lon="2.6483">
        <ele>164.884</ele>
        <time>2017-07-05T13:23:48Z</time>
      </trkpt>
      <trkpt lat="48.38285" lon="2.64856">
        <ele>165.184</ele>
        <time>2017-07-05T13:25:15Z</time>
      </trkpt>
      <trkpt lat="48.38281" lon="2.64868">
        <ele>165.204</ele>
        <time>2017-07-05T13:25:22Z</time>
      </trkpt>
      <trkpt lat="48.38277" lon="2.6489">
        <ele>165.23</ele>
        <time>2017-07-05T13:25:37Z</time>
      </trkpt>
      <trkpt lat="48.38269" lon="2.64912">
        <ele>165.235</ele>
        <time>2017-07-05T13:25:53Z</time>
      </trkpt>
      <trkpt lat="48.38267" lon="2.64931">
        <ele>165.222</ele>
        <time>2017-07-05T13:26:00Z</time>
      </trkpt>
      <trkpt lat="48.38264" lon="2.64943">
        <ele>165.205</ele>
        <time>2017-07-05T13:26:08Z</time>
      </trkpt>
      <trkpt lat="48.38262" lon="2.64962">
        <ele>165.199</ele>
        <time>2017-07-05T13:26:17Z</time>
      </trkpt>
      <trkpt lat="48.38262" lon="2.64962">
        <ele>165.199</ele>
        <time>2017-07-05T13:26:22Z</time>
      </trkpt>
      <trkpt lat="48.38262" lon="2.64962">
        <ele>117.6</ele>
        <time>2017-07-05T13:26:22Z</time>
      </trkpt>
      <trkpt lat="48.38262" lon="2.64962">
        <ele>117.6</ele>
        <time>2017-07-05T13:26:32Z</time>
      </trkpt>
      <trkpt lat="48.38264" lon="2.64983">
        <ele>165.23</ele>
        <time>2017-07-05T13:26:32Z</time>
      </trkpt>
      <trkpt lat="48.38258" lon="2.6501">
        <ele>165.279</ele>
        <time>2017-07-05T13:26:49Z</time>
      </trkpt>
      <trkpt lat="48.38256" lon="2.65024">
        <ele>165.298</ele>
        <time>2017-07-05T13:27:01Z</time>
      </trkpt>
      <trkpt lat="48.38252" lon="2.65056">
        <ele>165.317</ele>
        <time>2017-07-05T13:27:18Z</time>
      </trkpt>
      <trkpt lat="48.38253" lon="2.65068">
        <ele>165.308</ele>
        <time>2017-07-05T13:27:29Z</time>
      </trkpt>
      <trkpt lat="48.38258" lon="2.65103">
        <ele>165.215</ele>
        <time>2017-07-05T13:27:57Z</time>
      </trkpt>
      <trkpt lat="48.38252" lon="2.65124">
        <ele>165.131</ele>
        <time>2017-07-05T13:28:11Z</time>
      </trkpt>
      <trkpt lat="48.38244" lon="2.65158">
        <ele>165.022</ele>
        <time>2017-07-05T13:28:30Z</time>
      </trkpt>
      <trkpt lat="48.3824" lon="2.65177">
        <ele>164.98</ele>
        <time>2017-07-05T13:28:36Z</time>
      </trkpt>
      <trkpt lat="48.3824" lon="2.65177">
        <ele>107.7</ele>
        <time>2017-07-05T13:28:41Z</time>
      </trkpt>
      <trkpt lat="48.3824" lon="2.65177">
        <ele>107.7</ele>
        <time>2017-07-05T13:28:47Z</time>
      </trkpt>
      <trkpt lat="48.38236" lon="2.65191">
        <ele>164.904</ele>
        <time>2017-07-05T13:28:47Z</time>
      </trkpt>
      <trkpt lat="48.38228" lon="2.65212">
        <ele>164.798</ele>
        <time>2017-07-05T13:29:05Z</time>
      </trkpt>
      <trkpt lat="48.38219" lon="2.65237">
        <ele>164.702</ele>
        <time>2017-07-05T13:29:22Z</time>
      </trkpt>
      <trkpt lat="48.38211" lon="2.65254">
        <ele>164.608</ele>
        <time>2017-07-05T13:29:32Z</time>
      </trkpt>
      <trkpt lat="48.38211" lon="2.65254">
        <ele>164.608</ele>
        <time>2017-07-05T13:29:39Z</time>
      </trkpt>
      <trkpt lat="48.38211" lon="2.65254">
        <ele>102.7</ele>
        <time>2017-07-05T13:29:39Z</time>
      </trkpt>
      <trkpt lat="48.38211" lon="2.65254">
        <ele>102.7</ele>
        <time>2017-07-05T13:29:49Z</time>
      </trkpt>
      <trkpt lat="48.38207" lon="2.65273">
        <ele>164.393</ele>
        <time>2017-07-05T13:29:49Z</time>
      </trkpt>
      <trkpt lat="48.38213" lon="2.65296">
        <ele>164.167</ele>
        <time>2017-07-05T13:30:07Z</time>
      </trkpt>
      <trkpt lat="48.38207" lon="2.65323">
        <ele>164.043</ele>
        <time>2017-07-05T13:30:17Z</time>
      </trkpt>
      <trkpt lat="48.38206" lon="2.6533">
        <ele>163.968</ele>
        <time>2017-07-05T13:30:23Z</time>
      </trkpt>
      <trkpt lat="48.38206" lon="2.6533">
        <ele>99.8</ele>
        <time>2017-07-05T13:30:28Z</time>
      </trkpt>
      <trkpt lat="48.38206" lon="2.6533">
        <ele>99.8</ele>
        <time>2017-07-05T13:30:44Z</time>
      </trkpt>
      <trkpt lat="48.38199" lon="2.65352">
        <ele>163.712</ele>
        <time>2017-07-05T13:30:44Z</time>
      </trkpt>
      <trkpt lat="48.38185" lon="2.6538">
        <ele>163.393</ele>
        <time>2017-07-05T13:31:04Z</time>
      </trkpt>
      <trkpt lat="48.38181" lon="2.65402">
        <ele>163.14</ele>
        <time>2017-07-05T13:31:20Z</time>
      </trkpt>
      <trkpt lat="48.38183" lon="2.65421">
        <ele>162.987</ele>
        <time>2017-07-05T13:31:30Z</time>
      </trkpt>
      <trkpt lat="48.38183" lon="2.65435">
        <ele>162.812</ele>
        <time>2017-07-05T13:31:41Z</time>
      </trkpt>
      <trkpt lat="48.38181" lon="2.65454">
        <ele>162.504</ele>
        <time>2017-07-05T13:31:59Z</time>
      </trkpt>
      <trkpt lat="48.38182" lon="2.65477">
        <ele>162.22</ele>
        <time>2017-07-05T13:32:13Z</time>
      </trkpt>
      <trkpt lat="48.38182" lon="2.65514">
        <ele>161.845</ele>
        <time>2017-07-05T13:32:29Z</time>
      </trkpt>
      <trkpt lat="48.38179" lon="2.65535">
        <ele>161.363</ele>
        <time>2017-07-05T13:32:47Z</time>
      </trkpt>
      <trkpt lat="48.38168" lon="2.65567">
        <ele>160.535</ele>
        <time>2017-07-05T13:33:12Z</time>
      </trkpt>
      <trkpt lat="48.38161" lon="2.65584">
        <ele>160.11</ele>
        <time>2017-07-05T13:33:24Z</time>
      </trkpt>
      <trkpt lat="48.38154" lon="2.65606">
        <ele>159.678</ele>
        <time>2017-07-05T13:33:36Z</time>
      </trkpt>
      <trkpt lat="48.38154" lon="2.65606">
        <ele>85.5</ele>
        <time>2017-07-05T13:33:43Z</time>
      </trkpt>
      <trkpt lat="48.38154" lon="2.65606">
        <ele>85.5</ele>
        <time>2017-07-05T13:35:38Z</time>
      </trkpt>
      <trkpt lat="48.38142" lon="2.65635">
        <ele>157.33</ele>
        <time>2017-07-05T13:35:38Z</time>
      </trkpt>
      <trkpt lat="48.38139" lon="2.65652">
        <ele>157.13</ele>
        <time>2017-07-05T13:35:48Z</time>
      </trkpt>
      <trkpt lat="48.3814" lon="2.6568">
        <ele>156.838</ele>
        <time>2017-07-05T13:36:01Z</time>
      </trkpt>
      <trkpt lat="48.3814" lon="2.65707">
        <ele>156.427</ele>
        <time>2017-07-05T13:36:16Z</time>
      </trkpt>
      <trkpt lat="48.38143" lon="2.65729">
        <ele>156.177</ele>
        <time>2017-07-05T13:36:26Z</time>
      </trkpt>
      <trkpt lat="48.38144" lon="2.65742">
        <ele>155.993</ele>
        <time>2017-07-05T13:36:34Z</time>
      </trkpt>
      <trkpt lat="48.38144" lon="2.65742">
        <ele>155.993</ele>
        <time>2017-07-05T13:36:41Z</time>
      </trkpt>
      <trkpt lat="48.38144" lon="2.65742">
        <ele>84</ele>
        <time>2017-07-05T13:36:41Z</time>
      </trkpt>
      <trkpt lat="48.38144" lon="2.65742">
        <ele>84</ele>
        <time>2017-07-05T13:36:50Z</time>
      </trkpt>
      <trkpt lat="48.38145" lon="2.65765">
        <ele>155.644</ele>
        <time>2017-07-05T13:36:50Z</time>
      </trkpt>
      <trkpt lat="48.38148" lon="2.65783">
        <ele>155.47</ele>
        <time>2017-07-05T13:36:58Z</time>
      </trkpt>
      <trkpt lat="48.38152" lon="2.65789">
        <ele>155.382</ele>
        <time>2017-07-05T13:37:02Z</time>
      </trkpt>
      <trkpt lat="48.38152" lon="2.65789">
        <ele>83.8</ele>
        <time>2017-07-05T13:37:09Z</time>
      </trkpt>
      <trkpt lat="48.38152" lon="2.65789">
        <ele>83.8</ele>
        <time>2017-07-05T13:37:14Z</time>
      </trkpt>
      <trkpt lat="48.38152" lon="2.65804">
        <ele>155.104</ele>
        <time>2017-07-05T13:37:14Z</time>
      </trkpt>
      <trkpt lat="48.38154" lon="2.65838">
        <ele>154.655</ele>
        <time>2017-07-05T13:37:33Z</time>
      </trkpt>
      <trkpt lat="48.38153" lon="2.65872">
        <ele>154.191</ele>
        <time>2017-07-05T13:37:53Z</time>
      </trkpt>
      <trkpt lat="48.38152" lon="2.65892">
        <ele>153.955</ele>
        <time>2017-07-05T13:38:02Z</time>
      </trkpt>
      <trkpt lat="48.38124" lon="2.65891">
        <ele>152.317</ele>
        <time>2017-07-05T13:39:16Z</time>
      </trkpt>
      <trkpt lat="48.38124" lon="2.65891">
        <ele>152.317</ele>
        <time>2017-07-05T13:39:22Z</time>
      </trkpt>
      <trkpt lat="48.38124" lon="2.65891">
        <ele>83.6</ele>
        <time>2017-07-05T13:39:22Z</time>
      </trkpt>
      <trkpt lat="48.38124" lon="2.65891">
        <ele>83.6</ele>
        <time>2017-07-05T13:39:36Z</time>
      </trkpt>
      <trkpt lat="48.3811" lon="2.6588">
        <ele>151.927</ele>
        <time>2017-07-05T13:39:36Z</time>
      </trkpt>
      <trkpt lat="48.38094" lon="2.65874">
        <ele>151.722</ele>
        <time>2017-07-05T13:39:48Z</time>
      </trkpt>
      <trkpt lat="48.38081" lon="2.65875">
        <ele>151.485</ele>
        <time>2017-07-05T13:40:04Z</time>
      </trkpt>
      <trkpt lat="48.38067" lon="2.65872">
        <ele>151.38</ele>
        <time>2017-07-05T13:40:12Z</time>
      </trkpt>
      <trkpt lat="48.38057" lon="2.65874">
        <ele>151.285</ele>
        <time>2017-07-05T13:40:19Z</time>
      </trkpt>
      <trkpt lat="48.38049" lon="2.65874">
        <ele>151.188</ele>
        <time>2017-07-05T13:40:27Z</time>
      </trkpt>
      <trkpt lat="48.38033" lon="2.65861">
        <ele>150.974</ele>
        <time>2017-07-05T13:40:46Z</time>
      </trkpt>
      <trkpt lat="48.38019" lon="2.65836">
        <ele>150.797</ele>
        <time>2017-07-05T13:41:03Z</time>
      </trkpt>
      <trkpt lat="48.38006" lon="2.65823">
        <ele>150.7</ele>
        <time>2017-07-05T13:41:14Z</time>
      </trkpt>
      <trkpt lat="48.37999" lon="2.65817">
        <ele>150.646</ele>
        <time>2017-07-05T13:41:21Z</time>
      </trkpt>
      <trkpt lat="48.3799" lon="2.65814">
        <ele>150.562</ele>
        <time>2017-07-05T13:41:32Z</time>
      </trkpt>
      <trkpt lat="48.37977" lon="2.65801">
        <ele>150.458</ele>
        <time>2017-07-05T13:41:48Z</time>
      </trkpt>
      <trkpt lat="48.37959" lon="2.65784">
        <ele>150.378</ele>
        <time>2017-07-05T13:42:01Z</time>
      </trkpt>
      <trkpt lat="48.37959" lon="2.65784">
        <ele>93</ele>
        <time>2017-07-05T13:42:08Z</time>
      </trkpt>
      <trkpt lat="48.37959" lon="2.65784">
        <ele>93</ele>
        <time>2017-07-05T13:42:12Z</time>
      </trkpt>
      <trkpt lat="48.37956" lon="2.65779">
        <ele>150.304</ele>
        <time>2017-07-05T13:42:12Z</time>
      </trkpt>
      <trkpt lat="48.37944" lon="2.65754">
        <ele>150.222</ele>
        <time>2017-07-05T13:42:28Z</time>
      </trkpt>
      <trkpt lat="48.37935" lon="2.65733">
        <ele>150.175</ele>
        <time>2017-07-05T13:42:41Z</time>
      </trkpt>
      <trkpt lat="48.37928" lon="2.65707">
        <ele>150.11</ele>
        <time>2017-07-05T13:42:57Z</time>
      </trkpt>
      <trkpt lat="48.37924" lon="2.6569">
        <ele>150.089</ele>
        <time>2017-07-05T13:43:07Z</time>
      </trkpt>
      <trkpt lat="48.3791" lon="2.65652">
        <ele>150.092</ele>
        <time>2017-07-05T13:43:23Z</time>
      </trkpt>
      <trkpt lat="48.37897" lon="2.65642">
        <ele>150.106</ele>
        <time>2017-07-05T13:43:35Z</time>
      </trkpt>
      <trkpt lat="48.37872" lon="2.65634">
        <ele>150.123</ele>
        <time>2017-07-05T13:43:50Z</time>
      </trkpt>
      <trkpt lat="48.3786" lon="2.65634">
        <ele>150.125</ele>
        <time>2017-07-05T13:43:58Z</time>
      </trkpt>
      <trkpt lat="48.37847" lon="2.65626">
        <ele>150.123</ele>
        <time>2017-07-05T13:44:12Z</time>
      </trkpt>
      <trkpt lat="48.37836" lon="2.65623">
        <ele>150.126</ele>
        <time>2017-07-05T13:44:24Z</time>
      </trkpt>
      <trkpt lat="48.37865" lon="2.65637">
        <ele>149.731</ele>
        <time>2017-07-05T13:45:15Z</time>
      </trkpt>
      <trkpt lat="48.37881" lon="2.65639">
        <ele>149.538</ele>
        <time>2017-07-05T13:45:30Z</time>
      </trkpt>
      <trkpt lat="48.37892" lon="2.65642">
        <ele>149.372</ele>
        <time>2017-07-05T13:45:43Z</time>
      </trkpt>
      <trkpt lat="48.379" lon="2.65618">
        <ele>149.116</ele>
        <time>2017-07-05T13:46:02Z</time>
      </trkpt>
      <trkpt lat="48.37908" lon="2.65587">
        <ele>148.882</ele>
        <time>2017-07-05T13:46:20Z</time>
      </trkpt>
      <trkpt lat="48.37912" lon="2.65573">
        <ele>148.781</ele>
        <time>2017-07-05T13:46:30Z</time>
      </trkpt>
      <trkpt lat="48.37912" lon="2.65573">
        <ele>92.9</ele>
        <time>2017-07-05T13:46:38Z</time>
      </trkpt>
      <trkpt lat="48.37912" lon="2.65573">
        <ele>92.9</ele>
        <time>2017-07-05T13:48:03Z</time>
      </trkpt>
      <trkpt lat="48.37901" lon="2.65617">
        <ele>148.276</ele>
        <time>2017-07-05T13:48:03Z</time>
      </trkpt>
      <trkpt lat="48.379" lon="2.65643">
        <ele>148.231</ele>
        <time>2017-07-05T13:48:20Z</time>
      </trkpt>
      <trkpt lat="48.37897" lon="2.65683">
        <ele>148.118</ele>
        <time>2017-07-05T13:48:39Z</time>
      </trkpt>
      <trkpt lat="48.379" lon="2.65705">
        <ele>148.012</ele>
        <time>2017-07-05T13:48:51Z</time>
      </trkpt>
      <trkpt lat="48.37903" lon="2.65742">
        <ele>147.883</ele>
        <time>2017-07-05T13:49:06Z</time>
      </trkpt>
      <trkpt lat="48.37901" lon="2.65764">
        <ele>147.808</ele>
        <time>2017-07-05T13:49:14Z</time>
      </trkpt>
      <trkpt lat="48.37901" lon="2.65779">
        <ele>147.732</ele>
        <time>2017-07-05T13:49:23Z</time>
      </trkpt>
      <trkpt lat="48.37901" lon="2.65791">
        <ele>147.664</ele>
        <time>2017-07-05T13:49:31Z</time>
      </trkpt>
      <trkpt lat="48.37899" lon="2.65816">
        <ele>147.533</ele>
        <time>2017-07-05T13:49:47Z</time>
      </trkpt>
      <trkpt lat="48.37898" lon="2.65845">
        <ele>147.387</ele>
        <time>2017-07-05T13:50:03Z</time>
      </trkpt>
      <trkpt lat="48.37898" lon="2.65868">
        <ele>147.258</ele>
        <time>2017-07-05T13:50:18Z</time>
      </trkpt>
      <trkpt lat="48.37898" lon="2.65896">
        <ele>147.152</ele>
        <time>2017-07-05T13:50:34Z</time>
      </trkpt>
      <trkpt lat="48.37896" lon="2.65924">
        <ele>147.049</ele>
        <time>2017-07-05T13:50:50Z</time>
      </trkpt>
      <trkpt lat="48.37896" lon="2.65945">
        <ele>146.978</ele>
        <time>2017-07-05T13:51:02Z</time>
      </trkpt>
      <trkpt lat="48.37895" lon="2.65961">
        <ele>146.924</ele>
        <time>2017-07-05T13:51:10Z</time>
      </trkpt>
      <trkpt lat="48.37897" lon="2.65988">
        <ele>146.809</ele>
        <time>2017-07-05T13:51:27Z</time>
      </trkpt>
      <trkpt lat="48.37896" lon="2.66007">
        <ele>146.73</ele>
        <time>2017-07-05T13:51:40Z</time>
      </trkpt>
      <trkpt lat="48.37896" lon="2.66033">
        <ele>146.66</ele>
        <time>2017-07-05T13:51:57Z</time>
      </trkpt>
      <trkpt lat="48.37896" lon="2.66064">
        <ele>146.613</ele>
        <time>2017-07-05T13:52:14Z</time>
      </trkpt>
      <trkpt lat="48.37894" lon="2.66091">
        <ele>146.572</ele>
        <time>2017-07-05T13:52:31Z</time>
      </trkpt>
      <trkpt lat="48.37893" lon="2.66123">
        <ele>146.55</ele>
        <time>2017-07-05T13:52:50Z</time>
      </trkpt>
      <trkpt lat="48.37892" lon="2.66146">
        <ele>146.526</ele>
        <time>2017-07-05T13:53:05Z</time>
      </trkpt>
      <trkpt lat="48.3789" lon="2.66178">
        <ele>146.52</ele>
        <time>2017-07-05T13:53:21Z</time>
      </trkpt>
      <trkpt lat="48.37889" lon="2.66214">
        <ele>146.52</ele>
        <time>2017-07-05T13:53:41Z</time>
      </trkpt>
      <trkpt lat="48.37889" lon="2.66246">
        <ele>146.515</ele>
        <time>2017-07-05T13:54:00Z</time>
      </trkpt>
      <trkpt lat="48.3789" lon="2.66263">
        <ele>146.519</ele>
        <time>2017-07-05T13:54:14Z</time>
      </trkpt>
      <trkpt lat="48.37891" lon="2.66287">
        <ele>146.517</ele>
        <time>2017-07-05T13:54:27Z</time>
      </trkpt>
      <trkpt lat="48.37893" lon="2.66308">
        <ele>146.485</ele>
        <time>2017-07-05T13:54:45Z</time>
      </trkpt>
      <trkpt lat="48.37884" lon="2.66342">
        <ele>146.477</ele>
        <time>2017-07-05T13:55:03Z</time>
      </trkpt>
      <trkpt lat="48.37883" lon="2.66346">
        <ele>146.482</ele>
        <time>2017-07-05T13:55:08Z</time>
      </trkpt>
      <trkpt lat="48.37883" lon="2.66346">
        <ele>106.2</ele>
        <time>2017-07-05T13:55:13Z</time>
      </trkpt>
      <trkpt lat="48.37883" lon="2.66346">
        <ele>106.2</ele>
        <time>2017-07-05T13:55:20Z</time>
      </trkpt>
      <trkpt lat="48.37884" lon="2.66364">
        <ele>146.49</ele>
        <time>2017-07-05T13:55:20Z</time>
      </trkpt>
      <trkpt lat="48.37875" lon="2.66392">
        <ele>146.506</ele>
        <time>2017-07-05T13:55:36Z</time>
      </trkpt>
      <trkpt lat="48.37872" lon="2.66407">
        <ele>146.501</ele>
        <time>2017-07-05T13:55:48Z</time>
      </trkpt>
      <trkpt lat="48.37867" lon="2.66432">
        <ele>146.503</ele>
        <time>2017-07-05T13:56:03Z</time>
      </trkpt>
      <trkpt lat="48.37864" lon="2.66457">
        <ele>146.518</ele>
        <time>2017-07-05T13:56:17Z</time>
      </trkpt>
      <trkpt lat="48.37858" lon="2.66482">
        <ele>146.526</ele>
        <time>2017-07-05T13:56:31Z</time>
      </trkpt>
      <trkpt lat="48.37854" lon="2.66509">
        <ele>146.531</ele>
        <time>2017-07-05T13:56:48Z</time>
      </trkpt>
      <trkpt lat="48.37849" lon="2.66539">
        <ele>146.524</ele>
        <time>2017-07-05T13:57:05Z</time>
      </trkpt>
      <trkpt lat="48.37846" lon="2.66569">
        <ele>146.489</ele>
        <time>2017-07-05T13:57:25Z</time>
      </trkpt>
      <trkpt lat="48.37847" lon="2.66586">
        <ele>146.474</ele>
        <time>2017-07-05T13:57:33Z</time>
      </trkpt>
      <trkpt lat="48.37839" lon="2.66617">
        <ele>146.411</ele>
        <time>2017-07-05T13:57:54Z</time>
      </trkpt>
      <trkpt lat="48.37839" lon="2.66617">
        <ele>146.411</ele>
        <time>2017-07-05T14:01:10Z</time>
      </trkpt>
      <trkpt lat="48.37841" lon="2.6664">
        <ele>144.395</ele>
        <time>2017-07-05T14:02:34Z</time>
      </trkpt>
      <trkpt lat="48.3784" lon="2.66659">
        <ele>144.241</ele>
        <time>2017-07-05T14:02:48Z</time>
      </trkpt>
      <trkpt lat="48.37835" lon="2.66683">
        <ele>144.109</ele>
        <time>2017-07-05T14:03:05Z</time>
      </trkpt>
      <trkpt lat="48.37832" lon="2.66708">
        <ele>144.035</ele>
        <time>2017-07-05T14:03:18Z</time>
      </trkpt>
      <trkpt lat="48.37831" lon="2.66719">
        <ele>143.987</ele>
        <time>2017-07-05T14:03:27Z</time>
      </trkpt>
      <trkpt lat="48.37828" lon="2.66758">
        <ele>143.838</ele>
        <time>2017-07-05T14:03:58Z</time>
      </trkpt>
      <trkpt lat="48.37827" lon="2.66777">
        <ele>143.793</ele>
        <time>2017-07-05T14:04:10Z</time>
      </trkpt>
      <trkpt lat="48.37827" lon="2.66789">
        <ele>143.763</ele>
        <time>2017-07-05T14:04:18Z</time>
      </trkpt>
      <trkpt lat="48.37825" lon="2.66832">
        <ele>143.641</ele>
        <time>2017-07-05T14:04:55Z</time>
      </trkpt>
      <trkpt lat="48.37823" lon="2.66843">
        <ele>143.613</ele>
        <time>2017-07-05T14:05:05Z</time>
      </trkpt>
      <trkpt lat="48.37825" lon="2.66889">
        <ele>143.505</ele>
        <time>2017-07-05T14:05:40Z</time>
      </trkpt>
      <trkpt lat="48.37826" lon="2.66906">
        <ele>143.492</ele>
        <time>2017-07-05T14:05:50Z</time>
      </trkpt>
      <trkpt lat="48.37823" lon="2.66919">
        <ele>143.484</ele>
        <time>2017-07-05T14:06:03Z</time>
      </trkpt>
      <trkpt lat="48.37823" lon="2.66919">
        <ele>101.1</ele>
        <time>2017-07-05T14:06:10Z</time>
      </trkpt>
      <trkpt lat="48.37823" lon="2.66919">
        <ele>101.1</ele>
        <time>2017-07-05T14:06:17Z</time>
      </trkpt>
      <trkpt lat="48.37825" lon="2.66931">
        <ele>143.436</ele>
        <time>2017-07-05T14:06:17Z</time>
      </trkpt>
      <trkpt lat="48.37824" lon="2.66963">
        <ele>143.373</ele>
        <time>2017-07-05T14:06:35Z</time>
      </trkpt>
      <trkpt lat="48.37824" lon="2.66974">
        <ele>143.354</ele>
        <time>2017-07-05T14:06:43Z</time>
      </trkpt>
      <trkpt lat="48.37822" lon="2.66995">
        <ele>143.31</ele>
        <time>2017-07-05T14:06:58Z</time>
      </trkpt>
      <trkpt lat="48.37818" lon="2.6701">
        <ele>143.26</ele>
        <time>2017-07-05T14:07:10Z</time>
      </trkpt>
      <trkpt lat="48.37818" lon="2.6701">
        <ele>105.4</ele>
        <time>2017-07-05T14:07:17Z</time>
      </trkpt>
      <trkpt lat="48.37818" lon="2.6701">
        <ele>105.4</ele>
        <time>2017-07-05T14:07:21Z</time>
      </trkpt>
      <trkpt lat="48.37814" lon="2.67019">
        <ele>143.202</ele>
        <time>2017-07-05T14:07:21Z</time>
      </trkpt>
      <trkpt lat="48.37814" lon="2.67019">
        <ele>143.202</ele>
        <time>2017-07-05T14:07:29Z</time>
      </trkpt>
      <trkpt lat="48.37814" lon="2.67019">
        <ele>105.5</ele>
        <time>2017-07-05T14:07:29Z</time>
      </trkpt>
      <trkpt lat="48.37814" lon="2.67019">
        <ele>105.5</ele>
        <time>2017-07-05T14:07:43Z</time>
      </trkpt>
      <trkpt lat="48.37819" lon="2.67041">
        <ele>143.108</ele>
        <time>2017-07-05T14:07:43Z</time>
      </trkpt>
      <trkpt lat="48.37817" lon="2.67067">
        <ele>143.053</ele>
        <time>2017-07-05T14:07:58Z</time>
      </trkpt>
      <trkpt lat="48.3781" lon="2.67076">
        <ele>143.061</ele>
        <time>2017-07-05T14:08:07Z</time>
      </trkpt>
      <trkpt lat="48.3781" lon="2.67076">
        <ele>107.8</ele>
        <time>2017-07-05T14:08:15Z</time>
      </trkpt>
      <trkpt lat="48.3781" lon="2.67076">
        <ele>107.8</ele>
        <time>2017-07-05T14:08:24Z</time>
      </trkpt>
      <trkpt lat="48.37809" lon="2.67096">
        <ele>143.224</ele>
        <time>2017-07-05T14:08:24Z</time>
      </trkpt>
      <trkpt lat="48.37806" lon="2.67141">
        <ele>143.485</ele>
        <time>2017-07-05T14:09:22Z</time>
      </trkpt>
      <trkpt lat="48.37808" lon="2.67152">
        <ele>143.483</ele>
        <time>2017-07-05T14:09:28Z</time>
      </trkpt>
      <trkpt lat="48.37808" lon="2.67152">
        <ele>113.1</ele>
        <time>2017-07-05T14:09:34Z</time>
      </trkpt>
      <trkpt lat="48.37808" lon="2.67152">
        <ele>113.1</ele>
        <time>2017-07-05T14:09:37Z</time>
      </trkpt>
      <trkpt lat="48.37809" lon="2.67163">
        <ele>143.465</ele>
        <time>2017-07-05T14:09:37Z</time>
      </trkpt>
      <trkpt lat="48.37809" lon="2.67163">
        <ele>143.465</ele>
        <time>2017-07-05T14:09:44Z</time>
      </trkpt>
      <trkpt lat="48.37809" lon="2.67163">
        <ele>114</ele>
        <time>2017-07-05T14:09:44Z</time>
      </trkpt>
      <trkpt lat="48.37809" lon="2.67163">
        <ele>114</ele>
        <time>2017-07-05T14:09:50Z</time>
      </trkpt>
      <trkpt lat="48.37808" lon="2.67179">
        <ele>143.459</ele>
        <time>2017-07-05T14:09:50Z</time>
      </trkpt>
      <trkpt lat="48.37804" lon="2.67209">
        <ele>143.459</ele>
        <time>2017-07-05T14:10:08Z</time>
      </trkpt>
      <trkpt lat="48.37793" lon="2.67252">
        <ele>144.872</ele>
        <time>2017-07-05T14:11:16Z</time>
      </trkpt>
      <trkpt lat="48.37782" lon="2.67266">
        <ele>146.148</ele>
        <time>2017-07-05T14:11:30Z</time>
      </trkpt>
      <trkpt lat="48.37772" lon="2.67278">
        <ele>147.068</ele>
        <time>2017-07-05T14:11:42Z</time>
      </trkpt>
      <trkpt lat="48.37761" lon="2.67299">
        <ele>148.159</ele>
        <time>2017-07-05T14:11:59Z</time>
      </trkpt>
      <trkpt lat="48.37744" lon="2.67325">
        <ele>149.108</ele>
        <time>2017-07-05T14:12:18Z</time>
      </trkpt>
      <trkpt lat="48.37733" lon="2.67338">
        <ele>149.499</ele>
        <time>2017-07-05T14:12:28Z</time>
      </trkpt>
      <trkpt lat="48.37723" lon="2.67353">
        <ele>150.016</ele>
        <time>2017-07-05T14:12:43Z</time>
      </trkpt>
      <trkpt lat="48.37711" lon="2.67379">
        <ele>150.545</ele>
        <time>2017-07-05T14:13:01Z</time>
      </trkpt>
      <trkpt lat="48.37709" lon="2.67397">
        <ele>150.846</ele>
        <time>2017-07-05T14:13:14Z</time>
      </trkpt>
      <trkpt lat="48.37704" lon="2.67426">
        <ele>151.355</ele>
        <time>2017-07-05T14:13:34Z</time>
      </trkpt>
      <trkpt lat="48.37701" lon="2.67447">
        <ele>151.687</ele>
        <time>2017-07-05T14:13:50Z</time>
      </trkpt>
      <trkpt lat="48.37696" lon="2.67469">
        <ele>151.956</ele>
        <time>2017-07-05T14:14:02Z</time>
      </trkpt>
      <trkpt lat="48.37689" lon="2.67498">
        <ele>152.205</ele>
        <time>2017-07-05T14:14:19Z</time>
      </trkpt>
      <trkpt lat="48.37681" lon="2.67517">
        <ele>152.272</ele>
        <time>2017-07-05T14:14:34Z</time>
      </trkpt>
      <trkpt lat="48.37678" lon="2.67533">
        <ele>152.262</ele>
        <time>2017-07-05T14:14:47Z</time>
      </trkpt>
      <trkpt lat="48.37681" lon="2.67554">
        <ele>152.25</ele>
        <time>2017-07-05T14:15:00Z</time>
      </trkpt>
      <trkpt lat="48.37686" lon="2.6758">
        <ele>152.207</ele>
        <time>2017-07-05T14:15:13Z</time>
      </trkpt>
      <trkpt lat="48.37687" lon="2.67601">
        <ele>152.177</ele>
        <time>2017-07-05T14:15:22Z</time>
      </trkpt>
      <trkpt lat="48.37687" lon="2.67601">
        <ele>112.2</ele>
        <time>2017-07-05T14:15:29Z</time>
      </trkpt>
      <trkpt lat="48.37687" lon="2.67601">
        <ele>112.2</ele>
        <time>2017-07-05T14:15:34Z</time>
      </trkpt>
      <trkpt lat="48.37687" lon="2.67616">
        <ele>152.121</ele>
        <time>2017-07-05T14:15:34Z</time>
      </trkpt>
      <trkpt lat="48.3769" lon="2.67647">
        <ele>152.101</ele>
        <time>2017-07-05T14:15:52Z</time>
      </trkpt>
      <trkpt lat="48.37691" lon="2.67666">
        <ele>152.085</ele>
        <time>2017-07-05T14:16:00Z</time>
      </trkpt>
      <trkpt lat="48.37691" lon="2.67666">
        <ele>152.085</ele>
        <time>2017-07-05T14:16:06Z</time>
      </trkpt>
      <trkpt lat="48.37691" lon="2.67666">
        <ele>107.2</ele>
        <time>2017-07-05T14:16:06Z</time>
      </trkpt>
      <trkpt lat="48.37691" lon="2.67666">
        <ele>107.2</ele>
        <time>2017-07-05T14:16:10Z</time>
      </trkpt>
      <trkpt lat="48.37693" lon="2.6768">
        <ele>152.056</ele>
        <time>2017-07-05T14:16:10Z</time>
      </trkpt>
      <trkpt lat="48.37693" lon="2.6768">
        <ele>152.056</ele>
        <time>2017-07-05T14:16:15Z</time>
      </trkpt>
      <trkpt lat="48.37693" lon="2.6768">
        <ele>106.1</ele>
        <time>2017-07-05T14:16:15Z</time>
      </trkpt>
      <trkpt lat="48.37693" lon="2.6768">
        <ele>106.1</ele>
        <time>2017-07-05T14:16:19Z</time>
      </trkpt>
      <trkpt lat="48.37695" lon="2.67693">
        <ele>152.025</ele>
        <time>2017-07-05T14:16:19Z</time>
      </trkpt>
      <trkpt lat="48.37694" lon="2.67711">
        <ele>151.93</ele>
        <time>2017-07-05T14:16:32Z</time>
      </trkpt>
      <trkpt lat="48.37694" lon="2.6773">
        <ele>151.821</ele>
        <time>2017-07-05T14:16:41Z</time>
      </trkpt>
      <trkpt lat="48.37696" lon="2.67745">
        <ele>151.751</ele>
        <time>2017-07-05T14:16:47Z</time>
      </trkpt>
      <trkpt lat="48.37696" lon="2.67745">
        <ele>102.2</ele>
        <time>2017-07-05T14:16:52Z</time>
      </trkpt>
      <trkpt lat="48.37696" lon="2.67745">
        <ele>102.2</ele>
        <time>2017-07-05T14:16:58Z</time>
      </trkpt>
      <trkpt lat="48.377" lon="2.67759">
        <ele>151.577</ele>
        <time>2017-07-05T14:16:58Z</time>
      </trkpt>
      <trkpt lat="48.37704" lon="2.67796">
        <ele>151.407</ele>
        <time>2017-07-05T14:17:16Z</time>
      </trkpt>
      <trkpt lat="48.37706" lon="2.6782">
        <ele>150.977</ele>
        <time>2017-07-05T14:17:28Z</time>
      </trkpt>
      <trkpt lat="48.3771" lon="2.67839">
        <ele>150.496</ele>
        <time>2017-07-05T14:17:40Z</time>
      </trkpt>
      <trkpt lat="48.37714" lon="2.67863">
        <ele>150.24</ele>
        <time>2017-07-05T14:17:50Z</time>
      </trkpt>
      <trkpt lat="48.37714" lon="2.67882">
        <ele>150.016</ele>
        <time>2017-07-05T14:18:02Z</time>
      </trkpt>
      <trkpt lat="48.37714" lon="2.67882">
        <ele>97</ele>
        <time>2017-07-05T14:18:09Z</time>
      </trkpt>
      <trkpt lat="48.37714" lon="2.67882">
        <ele>97</ele>
        <time>2017-07-05T14:18:15Z</time>
      </trkpt>
      <trkpt lat="48.37714" lon="2.67892">
        <ele>149.689</ele>
        <time>2017-07-05T14:18:15Z</time>
      </trkpt>
      <trkpt lat="48.37719" lon="2.67922">
        <ele>149.289</ele>
        <time>2017-07-05T14:18:32Z</time>
      </trkpt>
      <trkpt lat="48.37722" lon="2.67946">
        <ele>148.948</ele>
        <time>2017-07-05T14:18:41Z</time>
      </trkpt>
      <trkpt lat="48.37722" lon="2.67946">
        <ele>95</ele>
        <time>2017-07-05T14:18:48Z</time>
      </trkpt>
      <trkpt lat="48.37722" lon="2.67946">
        <ele>95</ele>
        <time>2017-07-05T14:19:38Z</time>
      </trkpt>
      <trkpt lat="48.37722" lon="2.67946">
        <ele>95</ele>
        <time>2017-07-05T14:19:38Z</time>
      </trkpt>
    </trkseg>
  </trk>
</gpx>